<?xml version='1.0' encoding='UTF-8'?>
<gpx version="1.1" creator="https://www.komoot.de" xmlns="http://www.topografix.com/GPX/1/1" xmlns:xsi="http://www.w3.org/2001/XMLSchema-instance" xsi:schemaLocation="http://www.topografix.com/GPX/1/1 http://www.topografix.com/GPX/1/1/gpx.xsd">
  <metadata>
    <name>Horneburg</name>
    <author>
      <link href="https://www.komoot.de">
        <text>komoot</text>
        <type>text/html</type>
      </link>
    </author>
  </metadata>
  <wpt lat="51.631369" lon="7.295210">
    <name>Schloss Horneburg</name>
    <sym>Flag, Blue</sym>
  </wpt>
  <trk>
    <name>Horneburg</name>
    <type>touring_bicycle</type>
    <trkseg>
      <trkpt lat="51.738440" lon="7.184515">
        <ele>38.914358</ele>
        <time>2026-07-24T17:33:16.219Z</time>
      </trkpt>
      <trkpt lat="51.738577" lon="7.184704">
        <ele>38.870504</ele>
        <time>2026-07-24T17:33:19.433Z</time>
      </trkpt>
      <trkpt lat="51.738632" lon="7.184788">
        <ele>38.821517</ele>
        <time>2026-07-24T17:33:20.923Z</time>
      </trkpt>
      <trkpt lat="51.738728" lon="7.184629">
        <ele>38.845618</ele>
        <time>2026-07-24T17:33:24.468Z</time>
      </trkpt>
      <trkpt lat="51.738312" lon="7.184074">
        <ele>39.559735</ele>
        <time>2026-07-24T17:33:39.613Z</time>
      </trkpt>
      <trkpt lat="51.738227" lon="7.184208">
        <ele>39.630972</ele>
        <time>2026-07-24T17:33:42.612Z</time>
      </trkpt>
      <trkpt lat="51.738180" lon="7.184284">
        <ele>39.591482</ele>
        <time>2026-07-24T17:33:44.027Z</time>
      </trkpt>
      <trkpt lat="51.738135" lon="7.184385">
        <ele>39.545735</ele>
        <time>2026-07-24T17:33:45.537Z</time>
      </trkpt>
      <trkpt lat="51.738140" lon="7.184420">
        <ele>39.532529</ele>
        <time>2026-07-24T17:33:45.938Z</time>
      </trkpt>
      <trkpt lat="51.738152" lon="7.184471">
        <ele>39.487734</ele>
        <time>2026-07-24T17:33:46.536Z</time>
      </trkpt>
      <trkpt lat="51.738211" lon="7.184601">
        <ele>39.261917</ele>
        <time>2026-07-24T17:33:48.256Z</time>
      </trkpt>
      <trkpt lat="51.738371" lon="7.184949">
        <ele>38.666342</ele>
        <time>2026-07-24T17:33:52.841Z</time>
      </trkpt>
      <trkpt lat="51.738418" lon="7.185053">
        <ele>38.518734</ele>
        <time>2026-07-24T17:33:54.265Z</time>
      </trkpt>
      <trkpt lat="51.738455" lon="7.185135">
        <ele>38.510145</ele>
        <time>2026-07-24T17:33:55.462Z</time>
      </trkpt>
      <trkpt lat="51.738818" lon="7.185972">
        <ele>38.567057</ele>
        <time>2026-07-24T17:34:10.002Z</time>
      </trkpt>
      <trkpt lat="51.739200" lon="7.186834">
        <ele>39.578044</ele>
        <time>2026-07-24T17:34:28.605Z</time>
      </trkpt>
      <trkpt lat="51.739302" lon="7.187063">
        <ele>39.751553</ele>
        <time>2026-07-24T17:34:33.316Z</time>
      </trkpt>
      <trkpt lat="51.739372" lon="7.187224">
        <ele>39.831812</ele>
        <time>2026-07-24T17:34:37.085Z</time>
      </trkpt>
      <trkpt lat="51.739486" lon="7.187342">
        <ele>39.903476</ele>
        <time>2026-07-24T17:34:41.440Z</time>
      </trkpt>
      <trkpt lat="51.739722" lon="7.187355">
        <ele>40.066807</ele>
        <time>2026-07-24T17:34:48.959Z</time>
      </trkpt>
      <trkpt lat="51.739710" lon="7.187431">
        <ele>40.041158</ele>
        <time>2026-07-24T17:34:50.397Z</time>
      </trkpt>
      <trkpt lat="51.739657" lon="7.187468">
        <ele>40.010665</ele>
        <time>2026-07-24T17:34:52.032Z</time>
      </trkpt>
      <trkpt lat="51.739617" lon="7.187412">
        <ele>39.982707</ele>
        <time>2026-07-24T17:34:53.474Z</time>
      </trkpt>
      <trkpt lat="51.739303" lon="7.187399">
        <ele>39.672559</ele>
        <time>2026-07-24T17:35:01.596Z</time>
      </trkpt>
      <trkpt lat="51.739216" lon="7.187391">
        <ele>39.566300</ele>
        <time>2026-07-24T17:35:03.775Z</time>
      </trkpt>
      <trkpt lat="51.739133" lon="7.187435">
        <ele>39.459776</ele>
        <time>2026-07-24T17:35:06.056Z</time>
      </trkpt>
      <trkpt lat="51.738927" lon="7.187623">
        <ele>39.501955</ele>
        <time>2026-07-24T17:35:13.081Z</time>
      </trkpt>
      <trkpt lat="51.738914" lon="7.187635">
        <ele>39.506165</ele>
        <time>2026-07-24T17:35:13.537Z</time>
      </trkpt>
      <trkpt lat="51.738769" lon="7.187510">
        <ele>39.551943</ele>
        <time>2026-07-24T17:35:18.640Z</time>
      </trkpt>
      <trkpt lat="51.738564" lon="7.187532">
        <ele>39.469526</ele>
        <time>2026-07-24T17:35:24.452Z</time>
      </trkpt>
      <trkpt lat="51.738487" lon="7.187606">
        <ele>39.408380</ele>
        <time>2026-07-24T17:35:26.834Z</time>
      </trkpt>
      <trkpt lat="51.738369" lon="7.187522">
        <ele>39.293230</ele>
        <time>2026-07-24T17:35:30.141Z</time>
      </trkpt>
      <trkpt lat="51.738339" lon="7.187531">
        <ele>39.265984</ele>
        <time>2026-07-24T17:35:30.717Z</time>
      </trkpt>
      <trkpt lat="51.738258" lon="7.187556">
        <ele>39.221067</ele>
        <time>2026-07-24T17:35:32.372Z</time>
      </trkpt>
      <trkpt lat="51.737967" lon="7.187595">
        <ele>39.243964</ele>
        <time>2026-07-24T17:35:39.402Z</time>
      </trkpt>
      <trkpt lat="51.737928" lon="7.187599">
        <ele>39.260352</ele>
        <time>2026-07-24T17:35:40.367Z</time>
      </trkpt>
      <trkpt lat="51.737802" lon="7.187611">
        <ele>39.295700</ele>
        <time>2026-07-24T17:35:43.468Z</time>
      </trkpt>
      <trkpt lat="51.737532" lon="7.187644">
        <ele>39.281237</ele>
        <time>2026-07-24T17:35:49.664Z</time>
      </trkpt>
      <trkpt lat="51.735687" lon="7.187858">
        <ele>38.941650</ele>
        <time>2026-07-24T17:36:30.911Z</time>
      </trkpt>
      <trkpt lat="51.735508" lon="7.187877">
        <ele>39.021218</ele>
        <time>2026-07-24T17:36:35.785Z</time>
      </trkpt>
      <trkpt lat="51.735185" lon="7.187918">
        <ele>39.214988</ele>
        <time>2026-07-24T17:36:44.284Z</time>
      </trkpt>
      <trkpt lat="51.734867" lon="7.187959">
        <ele>38.931374</ele>
        <time>2026-07-24T17:36:50.551Z</time>
      </trkpt>
      <trkpt lat="51.734546" lon="7.187995">
        <ele>38.683514</ele>
        <time>2026-07-24T17:36:57.392Z</time>
      </trkpt>
      <trkpt lat="51.734024" lon="7.188055">
        <ele>38.151482</ele>
        <time>2026-07-24T17:37:08.020Z</time>
      </trkpt>
      <trkpt lat="51.733908" lon="7.188066">
        <ele>37.918257</ele>
        <time>2026-07-24T17:37:10.042Z</time>
      </trkpt>
      <trkpt lat="51.733778" lon="7.188078">
        <ele>37.752097</ele>
        <time>2026-07-24T17:37:12.391Z</time>
      </trkpt>
      <trkpt lat="51.733683" lon="7.188142">
        <ele>37.853741</ele>
        <time>2026-07-24T17:37:15.003Z</time>
      </trkpt>
      <trkpt lat="51.733610" lon="7.188301">
        <ele>38.046337</ele>
        <time>2026-07-24T17:37:19.205Z</time>
      </trkpt>
      <trkpt lat="51.733468" lon="7.188123">
        <ele>38.619975</ele>
        <time>2026-07-24T17:37:25.813Z</time>
      </trkpt>
      <trkpt lat="51.733278" lon="7.187930">
        <ele>38.940708</ele>
        <time>2026-07-24T17:37:32.174Z</time>
      </trkpt>
      <trkpt lat="51.733021" lon="7.187775">
        <ele>38.915064</ele>
        <time>2026-07-24T17:37:37.911Z</time>
      </trkpt>
      <trkpt lat="51.732994" lon="7.187763">
        <ele>38.912823</ele>
        <time>2026-07-24T17:37:38.474Z</time>
      </trkpt>
      <trkpt lat="51.732562" lon="7.187566">
        <ele>38.930351</ele>
        <time>2026-07-24T17:37:48.526Z</time>
      </trkpt>
      <trkpt lat="51.732422" lon="7.187510">
        <ele>38.990726</ele>
        <time>2026-07-24T17:37:52.141Z</time>
      </trkpt>
      <trkpt lat="51.732122" lon="7.187365">
        <ele>38.988896</ele>
        <time>2026-07-24T17:37:59.441Z</time>
      </trkpt>
      <trkpt lat="51.731810" lon="7.187218">
        <ele>38.549539</ele>
        <time>2026-07-24T17:38:05.232Z</time>
      </trkpt>
      <trkpt lat="51.731679" lon="7.187159">
        <ele>38.327519</ele>
        <time>2026-07-24T17:38:07.862Z</time>
      </trkpt>
      <trkpt lat="51.731371" lon="7.187022">
        <ele>37.574775</ele>
        <time>2026-07-24T17:38:13.430Z</time>
      </trkpt>
      <trkpt lat="51.730888" lon="7.186805">
        <ele>35.468771</ele>
        <time>2026-07-24T17:38:21.036Z</time>
      </trkpt>
      <trkpt lat="51.730033" lon="7.186403">
        <ele>38.613240</ele>
        <time>2026-07-24T17:38:54.756Z</time>
      </trkpt>
      <trkpt lat="51.729936" lon="7.186365">
        <ele>38.762050</ele>
        <time>2026-07-24T17:38:57.431Z</time>
      </trkpt>
      <trkpt lat="51.729954" lon="7.186270">
        <ele>38.847952</ele>
        <time>2026-07-24T17:38:58.922Z</time>
      </trkpt>
      <trkpt lat="51.730014" lon="7.185575">
        <ele>39.185935</ele>
        <time>2026-07-24T17:39:10.015Z</time>
      </trkpt>
      <trkpt lat="51.730002" lon="7.185198">
        <ele>39.277661</ele>
        <time>2026-07-24T17:39:15.464Z</time>
      </trkpt>
      <trkpt lat="51.729946" lon="7.184903">
        <ele>39.273708</ele>
        <time>2026-07-24T17:39:19.728Z</time>
      </trkpt>
      <trkpt lat="51.729213" lon="7.182332">
        <ele>38.500264</ele>
        <time>2026-07-24T17:39:55.912Z</time>
      </trkpt>
      <trkpt lat="51.728693" lon="7.180758">
        <ele>37.992307</ele>
        <time>2026-07-24T17:40:18.796Z</time>
      </trkpt>
      <trkpt lat="51.728299" lon="7.179238">
        <ele>37.389042</ele>
        <time>2026-07-24T17:40:39.475Z</time>
      </trkpt>
      <trkpt lat="51.727931" lon="7.178227">
        <ele>36.819048</ele>
        <time>2026-07-24T17:40:54.000Z</time>
      </trkpt>
      <trkpt lat="51.727363" lon="7.176350">
        <ele>36.598611</ele>
        <time>2026-07-24T17:41:22.931Z</time>
      </trkpt>
      <trkpt lat="51.726829" lon="7.174823">
        <ele>36.388966</ele>
        <time>2026-07-24T17:41:47.472Z</time>
      </trkpt>
      <trkpt lat="51.726392" lon="7.173781">
        <ele>36.100402</ele>
        <time>2026-07-24T17:42:04.431Z</time>
      </trkpt>
      <trkpt lat="51.725896" lon="7.172759">
        <ele>35.813618</ele>
        <time>2026-07-24T17:42:22.070Z</time>
      </trkpt>
      <trkpt lat="51.725350" lon="7.171720">
        <ele>35.709117</ele>
        <time>2026-07-24T17:42:41.377Z</time>
      </trkpt>
      <trkpt lat="51.724777" lon="7.170703">
        <ele>35.677173</ele>
        <time>2026-07-24T17:43:00.787Z</time>
      </trkpt>
      <trkpt lat="51.724008" lon="7.169501">
        <ele>35.228169</ele>
        <time>2026-07-24T17:43:24.059Z</time>
      </trkpt>
      <trkpt lat="51.722154" lon="7.167001">
        <ele>36.108261</ele>
        <time>2026-07-24T17:44:23.352Z</time>
      </trkpt>
      <trkpt lat="51.721556" lon="7.166270">
        <ele>36.497750</ele>
        <time>2026-07-24T17:44:42.296Z</time>
      </trkpt>
      <trkpt lat="51.721216" lon="7.165825">
        <ele>36.680053</ele>
        <time>2026-07-24T17:44:53.337Z</time>
      </trkpt>
      <trkpt lat="51.720796" lon="7.165251">
        <ele>36.523072</ele>
        <time>2026-07-24T17:45:05.632Z</time>
      </trkpt>
      <trkpt lat="51.720746" lon="7.165221">
        <ele>36.469800</ele>
        <time>2026-07-24T17:45:06.695Z</time>
      </trkpt>
      <trkpt lat="51.720662" lon="7.165231">
        <ele>36.388397</ele>
        <time>2026-07-24T17:45:08.269Z</time>
      </trkpt>
      <trkpt lat="51.720576" lon="7.165337">
        <ele>36.338639</ele>
        <time>2026-07-24T17:45:10.376Z</time>
      </trkpt>
      <trkpt lat="51.720541" lon="7.165403">
        <ele>36.313889</ele>
        <time>2026-07-24T17:45:11.573Z</time>
      </trkpt>
      <trkpt lat="51.720214" lon="7.166048">
        <ele>36.879632</ele>
        <time>2026-07-24T17:45:26.405Z</time>
      </trkpt>
      <trkpt lat="51.720183" lon="7.166111">
        <ele>36.962302</ele>
        <time>2026-07-24T17:45:27.733Z</time>
      </trkpt>
      <trkpt lat="51.720152" lon="7.166329">
        <ele>37.192129</ele>
        <time>2026-07-24T17:45:31.635Z</time>
      </trkpt>
      <trkpt lat="51.720163" lon="7.166408">
        <ele>37.316552</ele>
        <time>2026-07-24T17:45:33.326Z</time>
      </trkpt>
      <trkpt lat="51.720222" lon="7.166521">
        <ele>37.635150</ele>
        <time>2026-07-24T17:45:36.767Z</time>
      </trkpt>
      <trkpt lat="51.720850" lon="7.167059">
        <ele>40.245820</ele>
        <time>2026-07-24T17:46:03.938Z</time>
      </trkpt>
      <trkpt lat="51.720910" lon="7.167132">
        <ele>40.502104</ele>
        <time>2026-07-24T17:46:06.727Z</time>
      </trkpt>
      <trkpt lat="51.720934" lon="7.167217">
        <ele>40.578315</ele>
        <time>2026-07-24T17:46:08.608Z</time>
      </trkpt>
      <trkpt lat="51.720896" lon="7.167346">
        <ele>40.694852</ele>
        <time>2026-07-24T17:46:11.088Z</time>
      </trkpt>
      <trkpt lat="51.720571" lon="7.167762">
        <ele>40.818590</ele>
        <time>2026-07-24T17:46:20.885Z</time>
      </trkpt>
      <trkpt lat="51.720334" lon="7.168065">
        <ele>40.950406</ele>
        <time>2026-07-24T17:46:28.293Z</time>
      </trkpt>
      <trkpt lat="51.720087" lon="7.168391">
        <ele>41.285774</ele>
        <time>2026-07-24T17:46:37.821Z</time>
      </trkpt>
      <trkpt lat="51.719503" lon="7.167818">
        <ele>41.219442</ele>
        <time>2026-07-24T17:46:51.851Z</time>
      </trkpt>
      <trkpt lat="51.719477" lon="7.167880">
        <ele>41.272602</ele>
        <time>2026-07-24T17:46:53.313Z</time>
      </trkpt>
      <trkpt lat="51.719453" lon="7.167934">
        <ele>41.319790</ele>
        <time>2026-07-24T17:46:54.669Z</time>
      </trkpt>
      <trkpt lat="51.719352" lon="7.167877">
        <ele>41.390801</ele>
        <time>2026-07-24T17:46:57.984Z</time>
      </trkpt>
      <trkpt lat="51.718694" lon="7.167202">
        <ele>41.231478</ele>
        <time>2026-07-24T17:47:14.104Z</time>
      </trkpt>
      <trkpt lat="51.718333" lon="7.166674">
        <ele>41.352117</ele>
        <time>2026-07-24T17:47:25.291Z</time>
      </trkpt>
      <trkpt lat="51.717412" lon="7.165214">
        <ele>43.155399</ele>
        <time>2026-07-24T17:48:01.150Z</time>
      </trkpt>
      <trkpt lat="51.716723" lon="7.164031">
        <ele>45.483818</ele>
        <time>2026-07-24T17:48:33.182Z</time>
      </trkpt>
      <trkpt lat="51.716556" lon="7.164144">
        <ele>46.032606</ele>
        <time>2026-07-24T17:48:38.692Z</time>
      </trkpt>
      <trkpt lat="51.716042" lon="7.164622">
        <ele>50.026048</ele>
        <time>2026-07-24T17:49:09.591Z</time>
      </trkpt>
      <trkpt lat="51.714619" lon="7.165757">
        <ele>60.267311</ele>
        <time>2026-07-24T17:50:27.622Z</time>
      </trkpt>
      <trkpt lat="51.714229" lon="7.166073">
        <ele>62.227690</ele>
        <time>2026-07-24T17:50:44.901Z</time>
      </trkpt>
      <trkpt lat="51.713946" lon="7.166330">
        <ele>63.597406</ele>
        <time>2026-07-24T17:50:58.421Z</time>
      </trkpt>
      <trkpt lat="51.713445" lon="7.166773">
        <ele>64.733967</ele>
        <time>2026-07-24T17:51:15.945Z</time>
      </trkpt>
      <trkpt lat="51.713408" lon="7.166807">
        <ele>64.822751</ele>
        <time>2026-07-24T17:51:17.232Z</time>
      </trkpt>
      <trkpt lat="51.713402" lon="7.166813">
        <ele>64.837470</ele>
        <time>2026-07-24T17:51:17.468Z</time>
      </trkpt>
      <trkpt lat="51.712905" lon="7.167192">
        <ele>66.085691</ele>
        <time>2026-07-24T17:51:35.854Z</time>
      </trkpt>
      <trkpt lat="51.712205" lon="7.167801">
        <ele>66.070546</ele>
        <time>2026-07-24T17:51:53.518Z</time>
      </trkpt>
      <trkpt lat="51.711908" lon="7.168152">
        <ele>66.521932</ele>
        <time>2026-07-24T17:52:03.509Z</time>
      </trkpt>
      <trkpt lat="51.710870" lon="7.169762">
        <ele>70.783427</ele>
        <time>2026-07-24T17:52:53.770Z</time>
      </trkpt>
      <trkpt lat="51.710496" lon="7.170273">
        <ele>73.669250</ele>
        <time>2026-07-24T17:53:17.918Z</time>
      </trkpt>
      <trkpt lat="51.710102" lon="7.170705">
        <ele>75.229681</ele>
        <time>2026-07-24T17:53:35.054Z</time>
      </trkpt>
      <trkpt lat="51.710058" lon="7.170724">
        <ele>75.177849</ele>
        <time>2026-07-24T17:53:36.226Z</time>
      </trkpt>
      <trkpt lat="51.709570" lon="7.171065">
        <ele>74.357932</ele>
        <time>2026-07-24T17:53:46.217Z</time>
      </trkpt>
      <trkpt lat="51.708960" lon="7.171560">
        <ele>72.511455</ele>
        <time>2026-07-24T17:53:58.220Z</time>
      </trkpt>
      <trkpt lat="51.707530" lon="7.172797">
        <ele>65.822753</ele>
        <time>2026-07-24T17:54:24.687Z</time>
      </trkpt>
      <trkpt lat="51.706731" lon="7.173742">
        <ele>64.345125</ele>
        <time>2026-07-24T17:54:43.772Z</time>
      </trkpt>
      <trkpt lat="51.706363" lon="7.174238">
        <ele>64.138359</ele>
        <time>2026-07-24T17:54:54.369Z</time>
      </trkpt>
      <trkpt lat="51.705752" lon="7.174572">
        <ele>64.212637</ele>
        <time>2026-07-24T17:55:09.743Z</time>
      </trkpt>
      <trkpt lat="51.705531" lon="7.174740">
        <ele>64.372363</ele>
        <time>2026-07-24T17:55:15.605Z</time>
      </trkpt>
      <trkpt lat="51.705095" lon="7.173863">
        <ele>65.381213</ele>
        <time>2026-07-24T17:55:45.966Z</time>
      </trkpt>
      <trkpt lat="51.704464" lon="7.172692">
        <ele>66.599095</ele>
        <time>2026-07-24T17:56:26.626Z</time>
      </trkpt>
      <trkpt lat="51.703439" lon="7.170661">
        <ele>65.763452</ele>
        <time>2026-07-24T17:57:23.444Z</time>
      </trkpt>
      <trkpt lat="51.702262" lon="7.169166">
        <ele>67.321958</ele>
        <time>2026-07-24T17:58:25.692Z</time>
      </trkpt>
      <trkpt lat="51.701030" lon="7.167845">
        <ele>67.024469</ele>
        <time>2026-07-24T17:59:18.931Z</time>
      </trkpt>
      <trkpt lat="51.700780" lon="7.167601">
        <ele>67.136553</ele>
        <time>2026-07-24T17:59:30.028Z</time>
      </trkpt>
      <trkpt lat="51.699879" lon="7.166693">
        <ele>67.869267</ele>
        <time>2026-07-24T17:59:59.614Z</time>
      </trkpt>
      <trkpt lat="51.697921" lon="7.164699">
        <ele>68.310253</ele>
        <time>2026-07-24T18:00:57.830Z</time>
      </trkpt>
      <trkpt lat="51.697690" lon="7.164604">
        <ele>68.648286</ele>
        <time>2026-07-24T18:01:05.754Z</time>
      </trkpt>
      <trkpt lat="51.695656" lon="7.164315">
        <ele>71.096252</ele>
        <time>2026-07-24T18:02:05.877Z</time>
      </trkpt>
      <trkpt lat="51.692595" lon="7.163880">
        <ele>74.285248</ele>
        <time>2026-07-24T18:03:35.702Z</time>
      </trkpt>
      <trkpt lat="51.691579" lon="7.163251">
        <ele>72.046609</ele>
        <time>2026-07-24T18:03:56.851Z</time>
      </trkpt>
      <trkpt lat="51.691385" lon="7.163207">
        <ele>71.787107</ele>
        <time>2026-07-24T18:04:01.080Z</time>
      </trkpt>
      <trkpt lat="51.689723" lon="7.163627">
        <ele>69.226533</ele>
        <time>2026-07-24T18:04:35.870Z</time>
      </trkpt>
      <trkpt lat="51.688950" lon="7.163790">
        <ele>67.421317</ele>
        <time>2026-07-24T18:04:50.937Z</time>
      </trkpt>
      <trkpt lat="51.688802" lon="7.163591">
        <ele>66.654939</ele>
        <time>2026-07-24T18:04:54.284Z</time>
      </trkpt>
      <trkpt lat="51.686968" lon="7.160217">
        <ele>57.725842</ele>
        <time>2026-07-24T18:05:45.600Z</time>
      </trkpt>
      <trkpt lat="51.686791" lon="7.159886">
        <ele>57.032361</ele>
        <time>2026-07-24T18:05:50.747Z</time>
      </trkpt>
      <trkpt lat="51.686731" lon="7.159774">
        <ele>56.829899</ele>
        <time>2026-07-24T18:05:52.512Z</time>
      </trkpt>
      <trkpt lat="51.685672" lon="7.157838">
        <ele>54.201732</ele>
        <time>2026-07-24T18:06:25.149Z</time>
      </trkpt>
      <trkpt lat="51.683503" lon="7.164518">
        <ele>59.327882</ele>
        <time>2026-07-24T18:09:39.054Z</time>
      </trkpt>
      <trkpt lat="51.683393" lon="7.164863">
        <ele>59.646042</ele>
        <time>2026-07-24T18:09:49.440Z</time>
      </trkpt>
      <trkpt lat="51.683300" lon="7.165156">
        <ele>59.794954</ele>
        <time>2026-07-24T18:09:57.548Z</time>
      </trkpt>
      <trkpt lat="51.682793" lon="7.166746">
        <ele>60.365211</ele>
        <time>2026-07-24T18:10:40.863Z</time>
      </trkpt>
      <trkpt lat="51.682545" lon="7.167640">
        <ele>61.287241</ele>
        <time>2026-07-24T18:10:59.882Z</time>
      </trkpt>
      <trkpt lat="51.681978" lon="7.169285">
        <ele>62.881510</ele>
        <time>2026-07-24T18:11:35.526Z</time>
      </trkpt>
      <trkpt lat="51.681836" lon="7.169724">
        <ele>62.743135</ele>
        <time>2026-07-24T18:11:46.120Z</time>
      </trkpt>
      <trkpt lat="51.681637" lon="7.170341">
        <ele>61.936964</ele>
        <time>2026-07-24T18:11:59.524Z</time>
      </trkpt>
      <trkpt lat="51.681365" lon="7.171109">
        <ele>61.247029</ele>
        <time>2026-07-24T18:12:11.135Z</time>
      </trkpt>
      <trkpt lat="51.681170" lon="7.171712">
        <ele>61.193976</ele>
        <time>2026-07-24T18:12:21.383Z</time>
      </trkpt>
      <trkpt lat="51.680449" lon="7.174196">
        <ele>64.673329</ele>
        <time>2026-07-24T18:13:17.948Z</time>
      </trkpt>
      <trkpt lat="51.680064" lon="7.173914">
        <ele>64.729928</ele>
        <time>2026-07-24T18:13:33.300Z</time>
      </trkpt>
      <trkpt lat="51.679443" lon="7.173505">
        <ele>64.986497</ele>
        <time>2026-07-24T18:13:59.068Z</time>
      </trkpt>
      <trkpt lat="51.678493" lon="7.173125">
        <ele>66.654131</ele>
        <time>2026-07-24T18:14:42.359Z</time>
      </trkpt>
      <trkpt lat="51.678204" lon="7.173301">
        <ele>66.885606</ele>
        <time>2026-07-24T18:14:54.649Z</time>
      </trkpt>
      <trkpt lat="51.678100" lon="7.173364">
        <ele>66.938063</ele>
        <time>2026-07-24T18:14:58.897Z</time>
      </trkpt>
      <trkpt lat="51.678000" lon="7.173380">
        <ele>67.010096</ele>
        <time>2026-07-24T18:15:02.774Z</time>
      </trkpt>
      <trkpt lat="51.677646" lon="7.173259">
        <ele>67.417841</ele>
        <time>2026-07-24T18:15:17.810Z</time>
      </trkpt>
      <trkpt lat="51.677513" lon="7.173268">
        <ele>67.619326</ele>
        <time>2026-07-24T18:15:23.545Z</time>
      </trkpt>
      <trkpt lat="51.677309" lon="7.173414">
        <ele>68.137098</ele>
        <time>2026-07-24T18:15:33.680Z</time>
      </trkpt>
      <trkpt lat="51.676753" lon="7.174020">
        <ele>70.550232</ele>
        <time>2026-07-24T18:16:08.590Z</time>
      </trkpt>
      <trkpt lat="51.676541" lon="7.174455">
        <ele>72.143339</ele>
        <time>2026-07-24T18:16:27.778Z</time>
      </trkpt>
      <trkpt lat="51.676424" lon="7.174570">
        <ele>72.898594</ele>
        <time>2026-07-24T18:16:35.857Z</time>
      </trkpt>
      <trkpt lat="51.676199" lon="7.174653">
        <ele>74.224005</ele>
        <time>2026-07-24T18:16:49.802Z</time>
      </trkpt>
      <trkpt lat="51.676191" lon="7.174657">
        <ele>74.272866</ele>
        <time>2026-07-24T18:16:50.284Z</time>
      </trkpt>
      <trkpt lat="51.675531" lon="7.175027">
        <ele>77.942435</ele>
        <time>2026-07-24T18:17:31.796Z</time>
      </trkpt>
      <trkpt lat="51.675453" lon="7.175238">
        <ele>78.183018</ele>
        <time>2026-07-24T18:17:37.927Z</time>
      </trkpt>
      <trkpt lat="51.675388" lon="7.175578">
        <ele>78.050137</ele>
        <time>2026-07-24T18:17:45.247Z</time>
      </trkpt>
      <trkpt lat="51.675304" lon="7.175772">
        <ele>77.944426</ele>
        <time>2026-07-24T18:17:50.235Z</time>
      </trkpt>
      <trkpt lat="51.675188" lon="7.175836">
        <ele>77.913440</ele>
        <time>2026-07-24T18:17:55.148Z</time>
      </trkpt>
      <trkpt lat="51.675113" lon="7.175839">
        <ele>77.895343</ele>
        <time>2026-07-24T18:17:58.039Z</time>
      </trkpt>
      <trkpt lat="51.674972" lon="7.176990">
        <ele>76.238102</ele>
        <time>2026-07-24T18:18:20.367Z</time>
      </trkpt>
      <trkpt lat="51.674932" lon="7.177085">
        <ele>76.124274</ele>
        <time>2026-07-24T18:18:22.593Z</time>
      </trkpt>
      <trkpt lat="51.674898" lon="7.177105">
        <ele>76.066422</ele>
        <time>2026-07-24T18:18:23.769Z</time>
      </trkpt>
      <trkpt lat="51.673258" lon="7.176831">
        <ele>74.508555</ele>
        <time>2026-07-24T18:19:19.832Z</time>
      </trkpt>
      <trkpt lat="51.673109" lon="7.176807">
        <ele>74.360274</ele>
        <time>2026-07-24T18:19:24.902Z</time>
      </trkpt>
      <trkpt lat="51.672830" lon="7.176863">
        <ele>74.027400</ele>
        <time>2026-07-24T18:19:34.145Z</time>
      </trkpt>
      <trkpt lat="51.672840" lon="7.177003">
        <ele>74.018065</ele>
        <time>2026-07-24T18:19:35.841Z</time>
      </trkpt>
      <trkpt lat="51.672932" lon="7.178294">
        <ele>74.864540</ele>
        <time>2026-07-24T18:19:57.128Z</time>
      </trkpt>
      <trkpt lat="51.673043" lon="7.179745">
        <ele>78.926203</ele>
        <time>2026-07-24T18:20:34.558Z</time>
      </trkpt>
      <trkpt lat="51.673084" lon="7.180285">
        <ele>79.967010</ele>
        <time>2026-07-24T18:20:45.909Z</time>
      </trkpt>
      <trkpt lat="51.673143" lon="7.180440">
        <ele>80.253416</ele>
        <time>2026-07-24T18:20:49.546Z</time>
      </trkpt>
      <trkpt lat="51.673173" lon="7.180627">
        <ele>80.404735</ele>
        <time>2026-07-24T18:20:53.045Z</time>
      </trkpt>
      <trkpt lat="51.673405" lon="7.182066">
        <ele>81.046733</ele>
        <time>2026-07-24T18:21:17.626Z</time>
      </trkpt>
      <trkpt lat="51.673674" lon="7.183552">
        <ele>82.047313</ele>
        <time>2026-07-24T18:21:45.511Z</time>
      </trkpt>
      <trkpt lat="51.673845" lon="7.184794">
        <ele>83.482337</ele>
        <time>2026-07-24T18:22:11.308Z</time>
      </trkpt>
      <trkpt lat="51.674019" lon="7.186064">
        <ele>83.594839</ele>
        <time>2026-07-24T18:22:31.547Z</time>
      </trkpt>
      <trkpt lat="51.674337" lon="7.188594">
        <ele>83.391546</ele>
        <time>2026-07-24T18:23:10.159Z</time>
      </trkpt>
      <trkpt lat="51.674350" lon="7.188690">
        <ele>83.314376</ele>
        <time>2026-07-24T18:23:11.545Z</time>
      </trkpt>
      <trkpt lat="51.674553" lon="7.190406">
        <ele>81.754429</ele>
        <time>2026-07-24T18:23:33.956Z</time>
      </trkpt>
      <trkpt lat="51.674882" lon="7.193185">
        <ele>81.751436</ele>
        <time>2026-07-24T18:24:17.633Z</time>
      </trkpt>
      <trkpt lat="51.675159" lon="7.195816">
        <ele>79.984624</ele>
        <time>2026-07-24T18:24:52.892Z</time>
      </trkpt>
      <trkpt lat="51.675342" lon="7.197705">
        <ele>80.337274</ele>
        <time>2026-07-24T18:25:24.164Z</time>
      </trkpt>
      <trkpt lat="51.675350" lon="7.197958">
        <ele>80.230082</ele>
        <time>2026-07-24T18:25:27.894Z</time>
      </trkpt>
      <trkpt lat="51.675332" lon="7.198085">
        <ele>80.055090</ele>
        <time>2026-07-24T18:25:29.513Z</time>
      </trkpt>
      <trkpt lat="51.674799" lon="7.199926">
        <ele>75.830600</ele>
        <time>2026-07-24T18:25:52.308Z</time>
      </trkpt>
      <trkpt lat="51.674490" lon="7.201057">
        <ele>75.128841</ele>
        <time>2026-07-24T18:26:09.559Z</time>
      </trkpt>
      <trkpt lat="51.673948" lon="7.203046">
        <ele>72.608044</ele>
        <time>2026-07-24T18:26:36.585Z</time>
      </trkpt>
      <trkpt lat="51.673894" lon="7.203232">
        <ele>72.350693</ele>
        <time>2026-07-24T18:26:39.131Z</time>
      </trkpt>
      <trkpt lat="51.673786" lon="7.203644">
        <ele>71.601030</ele>
        <time>2026-07-24T18:26:44.363Z</time>
      </trkpt>
      <trkpt lat="51.673527" lon="7.204627">
        <ele>69.670129</ele>
        <time>2026-07-24T18:26:56.720Z</time>
      </trkpt>
      <trkpt lat="51.673449" lon="7.204919">
        <ele>69.049886</ele>
        <time>2026-07-24T18:27:00.320Z</time>
      </trkpt>
      <trkpt lat="51.673254" lon="7.205601">
        <ele>68.015483</ele>
        <time>2026-07-24T18:27:09.402Z</time>
      </trkpt>
      <trkpt lat="51.673273" lon="7.205612">
        <ele>68.004022</ele>
        <time>2026-07-24T18:27:09.798Z</time>
      </trkpt>
      <trkpt lat="51.673409" lon="7.205686">
        <ele>67.922536</ele>
        <time>2026-07-24T18:27:12.805Z</time>
      </trkpt>
      <trkpt lat="51.673284" lon="7.206186">
        <ele>68.177373</ele>
        <time>2026-07-24T18:27:21.165Z</time>
      </trkpt>
      <trkpt lat="51.673187" lon="7.206311">
        <ele>68.346455</ele>
        <time>2026-07-24T18:27:26.728Z</time>
      </trkpt>
      <trkpt lat="51.673136" lon="7.206335">
        <ele>68.458007</ele>
        <time>2026-07-24T18:27:29.247Z</time>
      </trkpt>
      <trkpt lat="51.673036" lon="7.206339">
        <ele>68.668042</ele>
        <time>2026-07-24T18:27:33.889Z</time>
      </trkpt>
      <trkpt lat="51.672962" lon="7.206605">
        <ele>68.971920</ele>
        <time>2026-07-24T18:27:39.213Z</time>
      </trkpt>
      <trkpt lat="51.672873" lon="7.206822">
        <ele>69.162420</ele>
        <time>2026-07-24T18:27:43.461Z</time>
      </trkpt>
      <trkpt lat="51.672701" lon="7.207095">
        <ele>69.250381</ele>
        <time>2026-07-24T18:27:49.220Z</time>
      </trkpt>
      <trkpt lat="51.672615" lon="7.207199">
        <ele>69.215686</ele>
        <time>2026-07-24T18:27:51.511Z</time>
      </trkpt>
      <trkpt lat="51.672475" lon="7.207381">
        <ele>68.993310</ele>
        <time>2026-07-24T18:27:54.738Z</time>
      </trkpt>
      <trkpt lat="51.672414" lon="7.207459">
        <ele>68.867394</ele>
        <time>2026-07-24T18:27:56.140Z</time>
      </trkpt>
      <trkpt lat="51.672186" lon="7.207754">
        <ele>68.779178</ele>
        <time>2026-07-24T18:28:02.123Z</time>
      </trkpt>
      <trkpt lat="51.672179" lon="7.207762">
        <ele>68.788461</ele>
        <time>2026-07-24T18:28:02.319Z</time>
      </trkpt>
      <trkpt lat="51.671372" lon="7.208744">
        <ele>69.938284</ele>
        <time>2026-07-24T18:28:29.538Z</time>
      </trkpt>
      <trkpt lat="51.670896" lon="7.209341">
        <ele>71.067518</ele>
        <time>2026-07-24T18:28:48.006Z</time>
      </trkpt>
      <trkpt lat="51.670774" lon="7.209466">
        <ele>71.304453</ele>
        <time>2026-07-24T18:28:51.809Z</time>
      </trkpt>
      <trkpt lat="51.669819" lon="7.210622">
        <ele>73.397406</ele>
        <time>2026-07-24T18:29:28.695Z</time>
      </trkpt>
      <trkpt lat="51.669293" lon="7.211280">
        <ele>76.831573</ele>
        <time>2026-07-24T18:30:00.432Z</time>
      </trkpt>
      <trkpt lat="51.668782" lon="7.211847">
        <ele>79.721898</ele>
        <time>2026-07-24T18:30:27.316Z</time>
      </trkpt>
      <trkpt lat="51.667057" lon="7.213926">
        <ele>85.824033</ele>
        <time>2026-07-24T18:31:44.324Z</time>
      </trkpt>
      <trkpt lat="51.666264" lon="7.214879">
        <ele>90.790348</ele>
        <time>2026-07-24T18:32:41.159Z</time>
      </trkpt>
      <trkpt lat="51.665886" lon="7.215333">
        <ele>92.884341</ele>
        <time>2026-07-24T18:33:07.722Z</time>
      </trkpt>
      <trkpt lat="51.665452" lon="7.215698">
        <ele>92.824380</ele>
        <time>2026-07-24T18:33:25.487Z</time>
      </trkpt>
      <trkpt lat="51.664831" lon="7.216134">
        <ele>90.972643</ele>
        <time>2026-07-24T18:33:45.907Z</time>
      </trkpt>
      <trkpt lat="51.664726" lon="7.216225">
        <ele>90.460665</ele>
        <time>2026-07-24T18:33:47.705Z</time>
      </trkpt>
      <trkpt lat="51.664401" lon="7.216469">
        <ele>88.778239</ele>
        <time>2026-07-24T18:33:53.026Z</time>
      </trkpt>
      <trkpt lat="51.662760" lon="7.217771">
        <ele>83.220102</ele>
        <time>2026-07-24T18:34:23.330Z</time>
      </trkpt>
      <trkpt lat="51.662709" lon="7.217855">
        <ele>83.019226</ele>
        <time>2026-07-24T18:34:24.582Z</time>
      </trkpt>
      <trkpt lat="51.662588" lon="7.217751">
        <ele>82.836867</ele>
        <time>2026-07-24T18:34:27.142Z</time>
      </trkpt>
      <trkpt lat="51.662017" lon="7.217548">
        <ele>82.838749</ele>
        <time>2026-07-24T18:34:41.086Z</time>
      </trkpt>
      <trkpt lat="51.661857" lon="7.217447">
        <ele>82.990955</ele>
        <time>2026-07-24T18:34:45.892Z</time>
      </trkpt>
      <trkpt lat="51.661238" lon="7.217266">
        <ele>83.316260</ele>
        <time>2026-07-24T18:35:02.106Z</time>
      </trkpt>
      <trkpt lat="51.660603" lon="7.217101">
        <ele>81.566234</ele>
        <time>2026-07-24T18:35:13.234Z</time>
      </trkpt>
      <trkpt lat="51.659603" lon="7.216657">
        <ele>77.947165</ele>
        <time>2026-07-24T18:35:30.671Z</time>
      </trkpt>
      <trkpt lat="51.659496" lon="7.216601">
        <ele>77.641671</ele>
        <time>2026-07-24T18:35:32.656Z</time>
      </trkpt>
      <trkpt lat="51.659428" lon="7.216518">
        <ele>77.429398</ele>
        <time>2026-07-24T18:35:34.240Z</time>
      </trkpt>
      <trkpt lat="51.659376" lon="7.216464">
        <ele>77.329738</ele>
        <time>2026-07-24T18:35:35.415Z</time>
      </trkpt>
      <trkpt lat="51.659204" lon="7.216256">
        <ele>76.978289</ele>
        <time>2026-07-24T18:35:39.328Z</time>
      </trkpt>
      <trkpt lat="51.658989" lon="7.216343">
        <ele>76.561055</ele>
        <time>2026-07-24T18:35:43.276Z</time>
      </trkpt>
      <trkpt lat="51.658865" lon="7.216347">
        <ele>76.269919</ele>
        <time>2026-07-24T18:35:45.409Z</time>
      </trkpt>
      <trkpt lat="51.658479" lon="7.216027">
        <ele>75.013141</ele>
        <time>2026-07-24T18:35:52.607Z</time>
      </trkpt>
      <trkpt lat="51.657798" lon="7.215428">
        <ele>72.943297</ele>
        <time>2026-07-24T18:36:05.615Z</time>
      </trkpt>
      <trkpt lat="51.657397" lon="7.215088">
        <ele>72.135388</ele>
        <time>2026-07-24T18:36:13.716Z</time>
      </trkpt>
      <trkpt lat="51.655335" lon="7.212266">
        <ele>68.882206</ele>
        <time>2026-07-24T18:37:04.833Z</time>
      </trkpt>
      <trkpt lat="51.655257" lon="7.212216">
        <ele>68.758760</ele>
        <time>2026-07-24T18:37:06.491Z</time>
      </trkpt>
      <trkpt lat="51.654496" lon="7.212292">
        <ele>67.299213</ele>
        <time>2026-07-24T18:37:19.885Z</time>
      </trkpt>
      <trkpt lat="51.653995" lon="7.212341">
        <ele>66.341532</ele>
        <time>2026-07-24T18:37:28.667Z</time>
      </trkpt>
      <trkpt lat="51.653082" lon="7.212463">
        <ele>65.100875</ele>
        <time>2026-07-24T18:37:45.923Z</time>
      </trkpt>
      <trkpt lat="51.652158" lon="7.212526">
        <ele>64.050489</ele>
        <time>2026-07-24T18:38:03.255Z</time>
      </trkpt>
      <trkpt lat="51.652047" lon="7.212516">
        <ele>64.067678</ele>
        <time>2026-07-24T18:38:05.962Z</time>
      </trkpt>
      <trkpt lat="51.651565" lon="7.212465">
        <ele>65.242752</ele>
        <time>2026-07-24T18:38:21.954Z</time>
      </trkpt>
      <trkpt lat="51.650026" lon="7.209932">
        <ele>68.148807</ele>
        <time>2026-07-24T18:39:22.174Z</time>
      </trkpt>
      <trkpt lat="51.649963" lon="7.209898">
        <ele>68.236471</ele>
        <time>2026-07-24T18:39:24.249Z</time>
      </trkpt>
      <trkpt lat="51.649891" lon="7.209906">
        <ele>68.322738</ele>
        <time>2026-07-24T18:39:26.399Z</time>
      </trkpt>
      <trkpt lat="51.649701" lon="7.209996">
        <ele>68.497176</ele>
        <time>2026-07-24T18:39:31.095Z</time>
      </trkpt>
      <trkpt lat="51.649299" lon="7.210291">
        <ele>68.759644</ele>
        <time>2026-07-24T18:39:41.619Z</time>
      </trkpt>
      <trkpt lat="51.648814" lon="7.210594">
        <ele>69.489723</ele>
        <time>2026-07-24T18:39:56.200Z</time>
      </trkpt>
      <trkpt lat="51.648629" lon="7.210490">
        <ele>70.021599</ele>
        <time>2026-07-24T18:40:02.747Z</time>
      </trkpt>
      <trkpt lat="51.648439" lon="7.210194">
        <ele>70.725472</ele>
        <time>2026-07-24T18:40:12.263Z</time>
      </trkpt>
      <trkpt lat="51.647600" lon="7.211285">
        <ele>70.853315</ele>
        <time>2026-07-24T18:40:38.404Z</time>
      </trkpt>
      <trkpt lat="51.646985" lon="7.212154">
        <ele>71.423961</ele>
        <time>2026-07-24T18:41:01.606Z</time>
      </trkpt>
      <trkpt lat="51.647367" lon="7.214408">
        <ele>70.323288</ele>
        <time>2026-07-24T18:41:33.520Z</time>
      </trkpt>
      <trkpt lat="51.647457" lon="7.214780">
        <ele>70.259768</ele>
        <time>2026-07-24T18:41:39.531Z</time>
      </trkpt>
      <trkpt lat="51.647705" lon="7.216404">
        <ele>71.011161</ele>
        <time>2026-07-24T18:42:08.462Z</time>
      </trkpt>
      <trkpt lat="51.647767" lon="7.216684">
        <ele>71.157384</ele>
        <time>2026-07-24T18:42:13.536Z</time>
      </trkpt>
      <trkpt lat="51.647258" lon="7.218235">
        <ele>71.381604</ele>
        <time>2026-07-24T18:42:40.894Z</time>
      </trkpt>
      <trkpt lat="51.646647" lon="7.220092">
        <ele>74.902679</ele>
        <time>2026-07-24T18:43:27.373Z</time>
      </trkpt>
      <trkpt lat="51.646482" lon="7.220662">
        <ele>75.804947</ele>
        <time>2026-07-24T18:43:41.691Z</time>
      </trkpt>
      <trkpt lat="51.646346" lon="7.221370">
        <ele>75.690952</ele>
        <time>2026-07-24T18:43:51.989Z</time>
      </trkpt>
      <trkpt lat="51.646254" lon="7.222348">
        <ele>75.197820</ele>
        <time>2026-07-24T18:44:05.488Z</time>
      </trkpt>
      <trkpt lat="51.646271" lon="7.223294">
        <ele>74.712051</ele>
        <time>2026-07-24T18:44:18.547Z</time>
      </trkpt>
      <trkpt lat="51.646358" lon="7.224825">
        <ele>74.166164</ele>
        <time>2026-07-24T18:44:40.334Z</time>
      </trkpt>
      <trkpt lat="51.646414" lon="7.225519">
        <ele>73.620935</ele>
        <time>2026-07-24T18:44:49.529Z</time>
      </trkpt>
      <trkpt lat="51.646461" lon="7.226540">
        <ele>73.104164</ele>
        <time>2026-07-24T18:45:03.572Z</time>
      </trkpt>
      <trkpt lat="51.646483" lon="7.227017">
        <ele>72.916450</ele>
        <time>2026-07-24T18:45:10.174Z</time>
      </trkpt>
      <trkpt lat="51.646441" lon="7.228337">
        <ele>72.660360</ele>
        <time>2026-07-24T18:45:29.434Z</time>
      </trkpt>
      <trkpt lat="51.646345" lon="7.229150">
        <ele>73.257084</ele>
        <time>2026-07-24T18:45:44.597Z</time>
      </trkpt>
      <trkpt lat="51.646147" lon="7.230277">
        <ele>75.016967</ele>
        <time>2026-07-24T18:46:09.579Z</time>
      </trkpt>
      <trkpt lat="51.645846" lon="7.231756">
        <ele>77.527789</ele>
        <time>2026-07-24T18:46:43.770Z</time>
      </trkpt>
      <trkpt lat="51.645709" lon="7.232339">
        <ele>78.132678</ele>
        <time>2026-07-24T18:46:55.599Z</time>
      </trkpt>
      <trkpt lat="51.645642" lon="7.232751">
        <ele>78.669628</ele>
        <time>2026-07-24T18:47:04.035Z</time>
      </trkpt>
      <trkpt lat="51.645594" lon="7.233153">
        <ele>79.436539</ele>
        <time>2026-07-24T18:47:14.633Z</time>
      </trkpt>
      <trkpt lat="51.645561" lon="7.233397">
        <ele>80.002836</ele>
        <time>2026-07-24T18:47:21.093Z</time>
      </trkpt>
      <trkpt lat="51.645357" lon="7.234251">
        <ele>82.093777</ele>
        <time>2026-07-24T18:47:43.639Z</time>
      </trkpt>
      <trkpt lat="51.645089" lon="7.235515">
        <ele>82.889923</ele>
        <time>2026-07-24T18:48:06.867Z</time>
      </trkpt>
      <trkpt lat="51.644820" lon="7.236915">
        <ele>83.419182</ele>
        <time>2026-07-24T18:48:32.077Z</time>
      </trkpt>
      <trkpt lat="51.644433" lon="7.238857">
        <ele>82.506053</ele>
        <time>2026-07-24T18:48:59.790Z</time>
      </trkpt>
      <trkpt lat="51.644400" lon="7.239007">
        <ele>82.571337</ele>
        <time>2026-07-24T18:49:02.524Z</time>
      </trkpt>
      <trkpt lat="51.643544" lon="7.243277">
        <ele>87.249014</ele>
        <time>2026-07-24T18:50:30.806Z</time>
      </trkpt>
      <trkpt lat="51.643324" lon="7.244412">
        <ele>87.297640</ele>
        <time>2026-07-24T18:50:49.989Z</time>
      </trkpt>
      <trkpt lat="51.643127" lon="7.245553">
        <ele>85.116937</ele>
        <time>2026-07-24T18:51:03.377Z</time>
      </trkpt>
      <trkpt lat="51.642992" lon="7.246125">
        <ele>84.544875</ele>
        <time>2026-07-24T18:51:11.284Z</time>
      </trkpt>
      <trkpt lat="51.642957" lon="7.246460">
        <ele>84.423648</ele>
        <time>2026-07-24T18:51:16.125Z</time>
      </trkpt>
      <trkpt lat="51.642668" lon="7.247960">
        <ele>84.291962</ele>
        <time>2026-07-24T18:51:39.889Z</time>
      </trkpt>
      <trkpt lat="51.642517" lon="7.248554">
        <ele>84.206703</ele>
        <time>2026-07-24T18:51:49.164Z</time>
      </trkpt>
      <trkpt lat="51.642478" lon="7.248690">
        <ele>84.191793</ele>
        <time>2026-07-24T18:51:51.198Z</time>
      </trkpt>
      <trkpt lat="51.642472" lon="7.248817">
        <ele>84.214876</ele>
        <time>2026-07-24T18:51:53.143Z</time>
      </trkpt>
      <trkpt lat="51.642524" lon="7.249005">
        <ele>84.327999</ele>
        <time>2026-07-24T18:51:56.620Z</time>
      </trkpt>
      <trkpt lat="51.642536" lon="7.249039">
        <ele>84.349496</ele>
        <time>2026-07-24T18:51:57.323Z</time>
      </trkpt>
      <trkpt lat="51.642502" lon="7.249138">
        <ele>84.371537</ele>
        <time>2026-07-24T18:52:00.133Z</time>
      </trkpt>
      <trkpt lat="51.642131" lon="7.249048">
        <ele>84.155274</ele>
        <time>2026-07-24T18:52:07.845Z</time>
      </trkpt>
      <trkpt lat="51.641817" lon="7.248950">
        <ele>83.632070</ele>
        <time>2026-07-24T18:52:13.554Z</time>
      </trkpt>
      <trkpt lat="51.641729" lon="7.248923">
        <ele>83.400070</ele>
        <time>2026-07-24T18:52:15.025Z</time>
      </trkpt>
      <trkpt lat="51.641539" lon="7.248881">
        <ele>83.075731</ele>
        <time>2026-07-24T18:52:18.240Z</time>
      </trkpt>
      <trkpt lat="51.641348" lon="7.248866">
        <ele>82.968119</ele>
        <time>2026-07-24T18:52:22.842Z</time>
      </trkpt>
      <trkpt lat="51.641282" lon="7.248862">
        <ele>82.976025</ele>
        <time>2026-07-24T18:52:24.558Z</time>
      </trkpt>
      <trkpt lat="51.640669" lon="7.248906">
        <ele>82.988056</ele>
        <time>2026-07-24T18:52:37.798Z</time>
      </trkpt>
      <trkpt lat="51.640631" lon="7.248909">
        <ele>83.023456</ele>
        <time>2026-07-24T18:52:38.856Z</time>
      </trkpt>
      <trkpt lat="51.640497" lon="7.248906">
        <ele>83.160965</ele>
        <time>2026-07-24T18:52:42.926Z</time>
      </trkpt>
      <trkpt lat="51.640254" lon="7.248888">
        <ele>83.470612</ele>
        <time>2026-07-24T18:52:49.362Z</time>
      </trkpt>
      <trkpt lat="51.639909" lon="7.248788">
        <ele>83.748606</ele>
        <time>2026-07-24T18:52:58.234Z</time>
      </trkpt>
      <trkpt lat="51.639499" lon="7.248560">
        <ele>84.373681</ele>
        <time>2026-07-24T18:53:10.613Z</time>
      </trkpt>
      <trkpt lat="51.639408" lon="7.248509">
        <ele>84.509591</ele>
        <time>2026-07-24T18:53:13.187Z</time>
      </trkpt>
      <trkpt lat="51.639263" lon="7.248426">
        <ele>84.713246</ele>
        <time>2026-07-24T18:53:17.225Z</time>
      </trkpt>
      <trkpt lat="51.638963" lon="7.248247">
        <ele>85.261130</ele>
        <time>2026-07-24T18:53:26.429Z</time>
      </trkpt>
      <trkpt lat="51.638510" lon="7.247972">
        <ele>86.339280</ele>
        <time>2026-07-24T18:53:42.720Z</time>
      </trkpt>
      <trkpt lat="51.637794" lon="7.247588">
        <ele>86.097107</ele>
        <time>2026-07-24T18:53:58.062Z</time>
      </trkpt>
      <trkpt lat="51.637507" lon="7.247446">
        <ele>85.481625</ele>
        <time>2026-07-24T18:54:03.123Z</time>
      </trkpt>
      <trkpt lat="51.637408" lon="7.248003">
        <ele>85.249652</ele>
        <time>2026-07-24T18:54:10.817Z</time>
      </trkpt>
      <trkpt lat="51.637321" lon="7.248499">
        <ele>84.904429</ele>
        <time>2026-07-24T18:54:16.799Z</time>
      </trkpt>
      <trkpt lat="51.637270" lon="7.248783">
        <ele>84.687637</ele>
        <time>2026-07-24T18:54:20.328Z</time>
      </trkpt>
      <trkpt lat="51.637232" lon="7.248996">
        <ele>84.452594</ele>
        <time>2026-07-24T18:54:22.871Z</time>
      </trkpt>
      <trkpt lat="51.637194" lon="7.249211">
        <ele>84.179240</ele>
        <time>2026-07-24T18:54:25.255Z</time>
      </trkpt>
      <trkpt lat="51.637074" lon="7.249507">
        <ele>83.631370</ele>
        <time>2026-07-24T18:54:28.930Z</time>
      </trkpt>
      <trkpt lat="51.636922" lon="7.249853">
        <ele>83.094814</ele>
        <time>2026-07-24T18:54:33.571Z</time>
      </trkpt>
      <trkpt lat="51.636872" lon="7.250160">
        <ele>82.714297</ele>
        <time>2026-07-24T18:54:37.086Z</time>
      </trkpt>
      <trkpt lat="51.636901" lon="7.250732">
        <ele>82.078089</ele>
        <time>2026-07-24T18:54:43.445Z</time>
      </trkpt>
      <trkpt lat="51.636923" lon="7.251106">
        <ele>81.589460</ele>
        <time>2026-07-24T18:54:47.509Z</time>
      </trkpt>
      <trkpt lat="51.636956" lon="7.251649">
        <ele>80.705649</ele>
        <time>2026-07-24T18:54:53.323Z</time>
      </trkpt>
      <trkpt lat="51.637079" lon="7.253765">
        <ele>75.854205</ele>
        <time>2026-07-24T18:55:14.248Z</time>
      </trkpt>
      <trkpt lat="51.636564" lon="7.254615">
        <ele>73.954441</ele>
        <time>2026-07-24T18:55:26.685Z</time>
      </trkpt>
      <trkpt lat="51.636413" lon="7.254937">
        <ele>73.503815</ele>
        <time>2026-07-24T18:55:31.263Z</time>
      </trkpt>
      <trkpt lat="51.636299" lon="7.255431">
        <ele>72.999983</ele>
        <time>2026-07-24T18:55:37.221Z</time>
      </trkpt>
      <trkpt lat="51.636474" lon="7.256879">
        <ele>71.629948</ele>
        <time>2026-07-24T18:55:53.964Z</time>
      </trkpt>
      <trkpt lat="51.636506" lon="7.257124">
        <ele>71.501268</ele>
        <time>2026-07-24T18:55:57.184Z</time>
      </trkpt>
      <trkpt lat="51.636559" lon="7.257527">
        <ele>71.308986</ele>
        <time>2026-07-24T18:56:02.141Z</time>
      </trkpt>
      <trkpt lat="51.636649" lon="7.258118">
        <ele>71.145269</ele>
        <time>2026-07-24T18:56:09.994Z</time>
      </trkpt>
      <trkpt lat="51.636718" lon="7.258657">
        <ele>71.197975</ele>
        <time>2026-07-24T18:56:17.868Z</time>
      </trkpt>
      <trkpt lat="51.636808" lon="7.259319">
        <ele>71.252327</ele>
        <time>2026-07-24T18:56:27.757Z</time>
      </trkpt>
      <trkpt lat="51.636887" lon="7.259906">
        <ele>70.776377</ele>
        <time>2026-07-24T18:56:34.672Z</time>
      </trkpt>
      <trkpt lat="51.637030" lon="7.261150">
        <ele>69.494059</ele>
        <time>2026-07-24T18:56:48.737Z</time>
      </trkpt>
      <trkpt lat="51.637326" lon="7.261997">
        <ele>69.655786</ele>
        <time>2026-07-24T18:57:07.422Z</time>
      </trkpt>
      <trkpt lat="51.637427" lon="7.262260">
        <ele>69.617716</ele>
        <time>2026-07-24T18:57:12.666Z</time>
      </trkpt>
      <trkpt lat="51.637850" lon="7.263540">
        <ele>69.468069</ele>
        <time>2026-07-24T18:57:38.499Z</time>
      </trkpt>
      <trkpt lat="51.637862" lon="7.263733">
        <ele>69.399674</ele>
        <time>2026-07-24T18:57:41.915Z</time>
      </trkpt>
      <trkpt lat="51.637878" lon="7.263885">
        <ele>69.306593</ele>
        <time>2026-07-24T18:57:44.474Z</time>
      </trkpt>
      <trkpt lat="51.637891" lon="7.264111">
        <ele>69.147134</ele>
        <time>2026-07-24T18:57:47.981Z</time>
      </trkpt>
      <trkpt lat="51.637898" lon="7.264423">
        <ele>68.905610</ele>
        <time>2026-07-24T18:57:52.876Z</time>
      </trkpt>
      <trkpt lat="51.637871" lon="7.264501">
        <ele>68.879601</ele>
        <time>2026-07-24T18:57:54.343Z</time>
      </trkpt>
      <trkpt lat="51.637874" lon="7.264592">
        <ele>68.853063</ele>
        <time>2026-07-24T18:57:55.913Z</time>
      </trkpt>
      <trkpt lat="51.637879" lon="7.264720">
        <ele>68.815713</ele>
        <time>2026-07-24T18:57:58.302Z</time>
      </trkpt>
      <trkpt lat="51.637912" lon="7.264751">
        <ele>68.835266</ele>
        <time>2026-07-24T18:57:59.514Z</time>
      </trkpt>
      <trkpt lat="51.637994" lon="7.265909">
        <ele>69.331648</ele>
        <time>2026-07-24T18:58:22.742Z</time>
      </trkpt>
      <trkpt lat="51.638000" lon="7.265987">
        <ele>69.331493</ele>
        <time>2026-07-24T18:58:24.191Z</time>
      </trkpt>
      <trkpt lat="51.638057" lon="7.266890">
        <ele>68.940230</ele>
        <time>2026-07-24T18:58:39.516Z</time>
      </trkpt>
      <trkpt lat="51.638098" lon="7.266884">
        <ele>68.794535</ele>
        <time>2026-07-24T18:58:40.255Z</time>
      </trkpt>
      <trkpt lat="51.638106" lon="7.268257">
        <ele>65.677508</ele>
        <time>2026-07-24T18:59:04.687Z</time>
      </trkpt>
      <trkpt lat="51.638110" lon="7.268465">
        <ele>65.121268</ele>
        <time>2026-07-24T18:59:08.332Z</time>
      </trkpt>
      <trkpt lat="51.638118" lon="7.268861">
        <ele>64.223633</ele>
        <time>2026-07-24T18:59:15.339Z</time>
      </trkpt>
      <trkpt lat="51.638114" lon="7.270610">
        <ele>62.507403</ele>
        <time>2026-07-24T18:59:50.527Z</time>
      </trkpt>
      <trkpt lat="51.638106" lon="7.271513">
        <ele>62.590201</ele>
        <time>2026-07-24T19:00:11.710Z</time>
      </trkpt>
      <trkpt lat="51.638068" lon="7.271802">
        <ele>62.628967</ele>
        <time>2026-07-24T19:00:18.861Z</time>
      </trkpt>
      <trkpt lat="51.638058" lon="7.272222">
        <ele>62.790995</ele>
        <time>2026-07-24T19:00:29.240Z</time>
      </trkpt>
      <trkpt lat="51.638078" lon="7.272566">
        <ele>62.888282</ele>
        <time>2026-07-24T19:00:37.329Z</time>
      </trkpt>
      <trkpt lat="51.638141" lon="7.272601">
        <ele>62.918394</ele>
        <time>2026-07-24T19:00:39.785Z</time>
      </trkpt>
      <trkpt lat="51.638178" lon="7.273938">
        <ele>63.301240</ele>
        <time>2026-07-24T19:01:00.138Z</time>
      </trkpt>
      <trkpt lat="51.638096" lon="7.275168">
        <ele>63.685917</ele>
        <time>2026-07-24T19:01:18.741Z</time>
      </trkpt>
      <trkpt lat="51.638120" lon="7.276176">
        <ele>63.869671</ele>
        <time>2026-07-24T19:01:33.328Z</time>
      </trkpt>
      <trkpt lat="51.638133" lon="7.276466">
        <ele>63.831887</ele>
        <time>2026-07-24T19:01:37.248Z</time>
      </trkpt>
      <trkpt lat="51.638151" lon="7.276777">
        <ele>63.913024</ele>
        <time>2026-07-24T19:01:41.584Z</time>
      </trkpt>
      <trkpt lat="51.638178" lon="7.277900">
        <ele>64.452397</ele>
        <time>2026-07-24T19:01:59.232Z</time>
      </trkpt>
      <trkpt lat="51.638166" lon="7.278402">
        <ele>65.091950</ele>
        <time>2026-07-24T19:02:08.964Z</time>
      </trkpt>
      <trkpt lat="51.638162" lon="7.278479">
        <ele>65.194558</ele>
        <time>2026-07-24T19:02:10.459Z</time>
      </trkpt>
      <trkpt lat="51.638133" lon="7.279017">
        <ele>65.934464</ele>
        <time>2026-07-24T19:02:20.782Z</time>
      </trkpt>
      <trkpt lat="51.638109" lon="7.279560">
        <ele>66.915619</ele>
        <time>2026-07-24T19:02:32.809Z</time>
      </trkpt>
      <trkpt lat="51.638103" lon="7.279681">
        <ele>67.106484</ele>
        <time>2026-07-24T19:02:35.325Z</time>
      </trkpt>
      <trkpt lat="51.638136" lon="7.279957">
        <ele>67.185953</ele>
        <time>2026-07-24T19:02:40.008Z</time>
      </trkpt>
      <trkpt lat="51.638015" lon="7.280118">
        <ele>66.994419</ele>
        <time>2026-07-24T19:02:45.068Z</time>
      </trkpt>
      <trkpt lat="51.637740" lon="7.280090">
        <ele>66.259078</ele>
        <time>2026-07-24T19:02:53.236Z</time>
      </trkpt>
      <trkpt lat="51.637708" lon="7.280672">
        <ele>65.436097</ele>
        <time>2026-07-24T19:03:04.492Z</time>
      </trkpt>
      <trkpt lat="51.637645" lon="7.281575">
        <ele>64.456364</ele>
        <time>2026-07-24T19:03:22.875Z</time>
      </trkpt>
      <trkpt lat="51.637338" lon="7.281638">
        <ele>63.309459</ele>
        <time>2026-07-24T19:03:27.740Z</time>
      </trkpt>
      <trkpt lat="51.637071" lon="7.281759">
        <ele>62.540786</ele>
        <time>2026-07-24T19:03:32.037Z</time>
      </trkpt>
      <trkpt lat="51.636769" lon="7.282023">
        <ele>63.308442</ele>
        <time>2026-07-24T19:03:43.830Z</time>
      </trkpt>
      <trkpt lat="51.636617" lon="7.282239">
        <ele>64.231152</ele>
        <time>2026-07-24T19:03:52.782Z</time>
      </trkpt>
      <trkpt lat="51.636504" lon="7.282407">
        <ele>64.795601</ele>
        <time>2026-07-24T19:03:58.698Z</time>
      </trkpt>
      <trkpt lat="51.636410" lon="7.282542">
        <ele>65.154031</ele>
        <time>2026-07-24T19:04:02.692Z</time>
      </trkpt>
      <trkpt lat="51.636227" lon="7.282860">
        <ele>65.541700</ele>
        <time>2026-07-24T19:04:09.985Z</time>
      </trkpt>
      <trkpt lat="51.636010" lon="7.283352">
        <ele>66.282235</ele>
        <time>2026-07-24T19:04:21.486Z</time>
      </trkpt>
      <trkpt lat="51.635905" lon="7.283577">
        <ele>66.614883</ele>
        <time>2026-07-24T19:04:26.282Z</time>
      </trkpt>
      <trkpt lat="51.635819" lon="7.283476">
        <ele>66.823860</ele>
        <time>2026-07-24T19:04:29.407Z</time>
      </trkpt>
      <trkpt lat="51.634709" lon="7.285879">
        <ele>71.234833</ele>
        <time>2026-07-24T19:05:29.778Z</time>
      </trkpt>
      <trkpt lat="51.633919" lon="7.287629">
        <ele>70.198614</ele>
        <time>2026-07-24T19:05:55.553Z</time>
      </trkpt>
      <trkpt lat="51.632317" lon="7.289977">
        <ele>70.789521</ele>
        <time>2026-07-24T19:06:46.346Z</time>
      </trkpt>
      <trkpt lat="51.632202" lon="7.290243">
        <ele>70.782714</ele>
        <time>2026-07-24T19:06:51.026Z</time>
      </trkpt>
      <trkpt lat="51.632193" lon="7.290364">
        <ele>70.716711</ele>
        <time>2026-07-24T19:06:52.567Z</time>
      </trkpt>
      <trkpt lat="51.632224" lon="7.290448">
        <ele>70.620586</ele>
        <time>2026-07-24T19:06:54.071Z</time>
      </trkpt>
      <trkpt lat="51.632141" lon="7.290861">
        <ele>70.174908</ele>
        <time>2026-07-24T19:06:58.735Z</time>
      </trkpt>
      <trkpt lat="51.632119" lon="7.291013">
        <ele>70.028247</ele>
        <time>2026-07-24T19:07:00.640Z</time>
      </trkpt>
      <trkpt lat="51.632111" lon="7.291094">
        <ele>69.996132</ele>
        <time>2026-07-24T19:07:01.722Z</time>
      </trkpt>
      <trkpt lat="51.632075" lon="7.291373">
        <ele>69.873693</ele>
        <time>2026-07-24T19:07:05.298Z</time>
      </trkpt>
      <trkpt lat="51.632027" lon="7.291731">
        <ele>69.614547</ele>
        <time>2026-07-24T19:07:09.635Z</time>
      </trkpt>
      <trkpt lat="51.631972" lon="7.292082">
        <ele>69.375600</ele>
        <time>2026-07-24T19:07:13.902Z</time>
      </trkpt>
      <trkpt lat="51.631802" lon="7.292864">
        <ele>68.654331</ele>
        <time>2026-07-24T19:07:23.323Z</time>
      </trkpt>
      <trkpt lat="51.631733" lon="7.293085">
        <ele>68.526142</ele>
        <time>2026-07-24T19:07:26.389Z</time>
      </trkpt>
      <trkpt lat="51.631648" lon="7.293251">
        <ele>68.542833</ele>
        <time>2026-07-24T19:07:29.529Z</time>
      </trkpt>
      <trkpt lat="51.631547" lon="7.293437">
        <ele>68.622445</ele>
        <time>2026-07-24T19:07:33.390Z</time>
      </trkpt>
      <trkpt lat="51.631417" lon="7.293604">
        <ele>68.759387</ele>
        <time>2026-07-24T19:07:37.590Z</time>
      </trkpt>
      <trkpt lat="51.631257" lon="7.293804">
        <ele>68.823505</ele>
        <time>2026-07-24T19:07:42.310Z</time>
      </trkpt>
      <trkpt lat="51.631070" lon="7.294050">
        <ele>69.002693</ele>
        <time>2026-07-24T19:07:48.426Z</time>
      </trkpt>
      <trkpt lat="51.630870" lon="7.294473">
        <ele>69.290788</ele>
        <time>2026-07-24T19:07:57.064Z</time>
      </trkpt>
      <trkpt lat="51.630837" lon="7.294595">
        <ele>69.359510</ele>
        <time>2026-07-24T19:07:59.106Z</time>
      </trkpt>
      <trkpt lat="51.630778" lon="7.294848">
        <ele>69.423803</ele>
        <time>2026-07-24T19:08:03.121Z</time>
      </trkpt>
      <trkpt lat="51.630734" lon="7.295104">
        <ele>69.448784</ele>
        <time>2026-07-24T19:08:06.896Z</time>
      </trkpt>
      <trkpt lat="51.630802" lon="7.295127">
        <ele>69.448795</ele>
        <time>2026-07-24T19:08:09.405Z</time>
      </trkpt>
      <trkpt lat="51.630830" lon="7.295131">
        <ele>69.448800</ele>
        <time>2026-07-24T19:08:10.210Z</time>
      </trkpt>
      <trkpt lat="51.630908" lon="7.295148">
        <ele>69.448216</ele>
        <time>2026-07-24T19:08:12.447Z</time>
      </trkpt>
      <trkpt lat="51.630942" lon="7.295169">
        <ele>69.447630</ele>
        <time>2026-07-24T19:08:13.478Z</time>
      </trkpt>
      <trkpt lat="51.631017" lon="7.295314">
        <ele>69.445744</ele>
        <time>2026-07-24T19:08:16.941Z</time>
      </trkpt>
      <trkpt lat="51.631029" lon="7.295459">
        <ele>69.458893</ele>
        <time>2026-07-24T19:08:19.704Z</time>
      </trkpt>
      <trkpt lat="51.631136" lon="7.295547">
        <ele>69.488180</ele>
        <time>2026-07-24T19:08:22.768Z</time>
      </trkpt>
      <trkpt lat="51.631310" lon="7.295620">
        <ele>69.499998</ele>
        <time>2026-07-24T19:08:27.238Z</time>
      </trkpt>
      <trkpt lat="51.631326" lon="7.295552">
        <ele>69.499998</ele>
        <time>2026-07-24T19:08:30.367Z</time>
      </trkpt>
      <trkpt lat="51.631310" lon="7.295620">
        <ele>69.499998</ele>
        <time>2026-07-24T19:08:33.495Z</time>
      </trkpt>
      <trkpt lat="51.631136" lon="7.295547">
        <ele>69.496839</ele>
        <time>2026-07-24T19:08:37.919Z</time>
      </trkpt>
      <trkpt lat="51.631029" lon="7.295459">
        <ele>69.467666</ele>
        <time>2026-07-24T19:08:40.785Z</time>
      </trkpt>
      <trkpt lat="51.631017" lon="7.295314">
        <ele>69.431906</ele>
        <time>2026-07-24T19:08:43.360Z</time>
      </trkpt>
      <trkpt lat="51.630942" lon="7.295169">
        <ele>69.426184</ele>
        <time>2026-07-24T19:08:46.747Z</time>
      </trkpt>
      <trkpt lat="51.630908" lon="7.295148">
        <ele>69.438595</ele>
        <time>2026-07-24T19:08:47.820Z</time>
      </trkpt>
      <trkpt lat="51.630830" lon="7.295131">
        <ele>69.465424</ele>
        <time>2026-07-24T19:08:50.216Z</time>
      </trkpt>
      <trkpt lat="51.630802" lon="7.295127">
        <ele>69.475006</ele>
        <time>2026-07-24T19:08:51.081Z</time>
      </trkpt>
      <trkpt lat="51.630734" lon="7.295104">
        <ele>69.470367</ele>
        <time>2026-07-24T19:08:53.677Z</time>
      </trkpt>
      <trkpt lat="51.630778" lon="7.294848">
        <ele>69.417710</ele>
        <time>2026-07-24T19:08:57.262Z</time>
      </trkpt>
      <trkpt lat="51.630837" lon="7.294595">
        <ele>69.346107</ele>
        <time>2026-07-24T19:09:00.751Z</time>
      </trkpt>
      <trkpt lat="51.630870" lon="7.294473">
        <ele>69.305634</ele>
        <time>2026-07-24T19:09:02.412Z</time>
      </trkpt>
      <trkpt lat="51.631070" lon="7.294050">
        <ele>69.004523</ele>
        <time>2026-07-24T19:09:08.797Z</time>
      </trkpt>
      <trkpt lat="51.631257" lon="7.293804">
        <ele>68.845693</ele>
        <time>2026-07-24T19:09:13.565Z</time>
      </trkpt>
      <trkpt lat="51.631417" lon="7.293604">
        <ele>68.735106</ele>
        <time>2026-07-24T19:09:17.891Z</time>
      </trkpt>
      <trkpt lat="51.631547" lon="7.293437">
        <ele>68.630798</ele>
        <time>2026-07-24T19:09:21.188Z</time>
      </trkpt>
      <trkpt lat="51.631648" lon="7.293251">
        <ele>68.526770</ele>
        <time>2026-07-24T19:09:24.238Z</time>
      </trkpt>
      <trkpt lat="51.631733" lon="7.293085">
        <ele>68.547762</ele>
        <time>2026-07-24T19:09:27.060Z</time>
      </trkpt>
      <trkpt lat="51.631802" lon="7.292864">
        <ele>68.638492</ele>
        <time>2026-07-24T19:09:30.904Z</time>
      </trkpt>
      <trkpt lat="51.631972" lon="7.292082">
        <ele>69.362743</ele>
        <time>2026-07-24T19:09:45.486Z</time>
      </trkpt>
      <trkpt lat="51.632027" lon="7.291731">
        <ele>69.624042</ele>
        <time>2026-07-24T19:09:51.499Z</time>
      </trkpt>
      <trkpt lat="51.632075" lon="7.291373">
        <ele>69.855984</ele>
        <time>2026-07-24T19:09:57.557Z</time>
      </trkpt>
      <trkpt lat="51.632111" lon="7.291094">
        <ele>70.015796</ele>
        <time>2026-07-24T19:10:01.918Z</time>
      </trkpt>
      <trkpt lat="51.632119" lon="7.291013">
        <ele>70.061147</ele>
        <time>2026-07-24T19:10:03.111Z</time>
      </trkpt>
      <trkpt lat="51.632141" lon="7.290861">
        <ele>70.147447</ele>
        <time>2026-07-24T19:10:05.591Z</time>
      </trkpt>
      <trkpt lat="51.632224" lon="7.290448">
        <ele>70.648910</ele>
        <time>2026-07-24T19:10:13.973Z</time>
      </trkpt>
      <trkpt lat="51.632193" lon="7.290364">
        <ele>70.695227</ele>
        <time>2026-07-24T19:10:16.086Z</time>
      </trkpt>
      <trkpt lat="51.632202" lon="7.290243">
        <ele>70.752985</ele>
        <time>2026-07-24T19:10:17.966Z</time>
      </trkpt>
      <trkpt lat="51.632317" lon="7.289977">
        <ele>70.782566</ele>
        <time>2026-07-24T19:10:22.243Z</time>
      </trkpt>
      <trkpt lat="51.633919" lon="7.287629">
        <ele>70.182804</ele>
        <time>2026-07-24T19:11:08.023Z</time>
      </trkpt>
      <trkpt lat="51.634709" lon="7.285879">
        <ele>71.294406</ele>
        <time>2026-07-24T19:11:43.536Z</time>
      </trkpt>
      <trkpt lat="51.635819" lon="7.283476">
        <ele>66.839002</ele>
        <time>2026-07-24T19:12:14.991Z</time>
      </trkpt>
      <trkpt lat="51.635905" lon="7.283577">
        <ele>66.607123</ele>
        <time>2026-07-24T19:12:16.905Z</time>
      </trkpt>
      <trkpt lat="51.636010" lon="7.283352">
        <ele>66.281101</ele>
        <time>2026-07-24T19:12:20.180Z</time>
      </trkpt>
      <trkpt lat="51.636227" lon="7.282860">
        <ele>65.556170</ele>
        <time>2026-07-24T19:12:26.701Z</time>
      </trkpt>
      <trkpt lat="51.636410" lon="7.282542">
        <ele>65.119853</ele>
        <time>2026-07-24T19:12:31.770Z</time>
      </trkpt>
      <trkpt lat="51.636504" lon="7.282407">
        <ele>64.822614</ele>
        <time>2026-07-24T19:12:33.935Z</time>
      </trkpt>
      <trkpt lat="51.636617" lon="7.282239">
        <ele>64.227539</ele>
        <time>2026-07-24T19:12:36.331Z</time>
      </trkpt>
      <trkpt lat="51.636769" lon="7.282023">
        <ele>63.313134</ele>
        <time>2026-07-24T19:12:39.361Z</time>
      </trkpt>
      <trkpt lat="51.637071" lon="7.281759">
        <ele>62.540304</ele>
        <time>2026-07-24T19:12:45.008Z</time>
      </trkpt>
      <trkpt lat="51.637338" lon="7.281638">
        <ele>63.331319</ele>
        <time>2026-07-24T19:12:55.926Z</time>
      </trkpt>
      <trkpt lat="51.637645" lon="7.281575">
        <ele>64.705133</ele>
        <time>2026-07-24T19:13:08.128Z</time>
      </trkpt>
      <trkpt lat="51.637943" lon="7.281516">
        <ele>66.052955</ele>
        <time>2026-07-24T19:13:20.652Z</time>
      </trkpt>
      <trkpt lat="51.638263" lon="7.281390">
        <ele>67.292235</ele>
        <time>2026-07-24T19:13:32.619Z</time>
      </trkpt>
      <trkpt lat="51.638450" lon="7.281273">
        <ele>68.096785</ele>
        <time>2026-07-24T19:13:39.810Z</time>
      </trkpt>
      <trkpt lat="51.638729" lon="7.281009">
        <ele>69.678472</ele>
        <time>2026-07-24T19:13:53.889Z</time>
      </trkpt>
      <trkpt lat="51.638992" lon="7.281001">
        <ele>70.801709</ele>
        <time>2026-07-24T19:14:04.777Z</time>
      </trkpt>
      <trkpt lat="51.639139" lon="7.281074">
        <ele>71.231765</ele>
        <time>2026-07-24T19:14:10.069Z</time>
      </trkpt>
      <trkpt lat="51.639271" lon="7.281260">
        <ele>71.453708</ele>
        <time>2026-07-24T19:14:14.721Z</time>
      </trkpt>
      <trkpt lat="51.639342" lon="7.281360">
        <ele>71.553919</ele>
        <time>2026-07-24T19:14:17.255Z</time>
      </trkpt>
      <trkpt lat="51.639593" lon="7.281640">
        <ele>71.989829</ele>
        <time>2026-07-24T19:14:25.970Z</time>
      </trkpt>
      <trkpt lat="51.639924" lon="7.281789">
        <ele>72.507757</ele>
        <time>2026-07-24T19:14:36.169Z</time>
      </trkpt>
      <trkpt lat="51.640217" lon="7.281774">
        <ele>73.110546</ele>
        <time>2026-07-24T19:14:45.009Z</time>
      </trkpt>
      <trkpt lat="51.640327" lon="7.281735">
        <ele>73.487326</ele>
        <time>2026-07-24T19:14:48.987Z</time>
      </trkpt>
      <trkpt lat="51.640556" lon="7.281581">
        <ele>74.591531</ele>
        <time>2026-07-24T19:14:59.486Z</time>
      </trkpt>
      <trkpt lat="51.641503" lon="7.280945">
        <ele>79.094342</ele>
        <time>2026-07-24T19:15:42.205Z</time>
      </trkpt>
      <trkpt lat="51.641568" lon="7.280910">
        <ele>79.266127</ele>
        <time>2026-07-24T19:15:44.183Z</time>
      </trkpt>
      <trkpt lat="51.641527" lon="7.280413">
        <ele>79.457875</ele>
        <time>2026-07-24T19:15:51.417Z</time>
      </trkpt>
      <trkpt lat="51.641476" lon="7.279581">
        <ele>79.142798</ele>
        <time>2026-07-24T19:16:01.859Z</time>
      </trkpt>
      <trkpt lat="51.641507" lon="7.279172">
        <ele>79.108171</ele>
        <time>2026-07-24T19:16:07.585Z</time>
      </trkpt>
      <trkpt lat="51.641693" lon="7.278122">
        <ele>79.204946</ele>
        <time>2026-07-24T19:16:22.970Z</time>
      </trkpt>
      <trkpt lat="51.641816" lon="7.277473">
        <ele>79.290107</ele>
        <time>2026-07-24T19:16:32.857Z</time>
      </trkpt>
      <trkpt lat="51.641841" lon="7.277181">
        <ele>79.361901</ele>
        <time>2026-07-24T19:16:36.716Z</time>
      </trkpt>
      <trkpt lat="51.641901" lon="7.276425">
        <ele>79.747298</ele>
        <time>2026-07-24T19:16:49.901Z</time>
      </trkpt>
      <trkpt lat="51.641994" lon="7.275153">
        <ele>79.267476</ele>
        <time>2026-07-24T19:17:05.681Z</time>
      </trkpt>
      <trkpt lat="51.642170" lon="7.272856">
        <ele>76.975397</ele>
        <time>2026-07-24T19:17:31.551Z</time>
      </trkpt>
      <trkpt lat="51.642252" lon="7.271758">
        <ele>76.608918</ele>
        <time>2026-07-24T19:17:45.929Z</time>
      </trkpt>
      <trkpt lat="51.642404" lon="7.269756">
        <ele>76.178698</ele>
        <time>2026-07-24T19:18:12.246Z</time>
      </trkpt>
      <trkpt lat="51.642395" lon="7.269410">
        <ele>76.014150</ele>
        <time>2026-07-24T19:18:16.449Z</time>
      </trkpt>
      <trkpt lat="51.642075" lon="7.267316">
        <ele>75.315232</ele>
        <time>2026-07-24T19:18:43.655Z</time>
      </trkpt>
      <trkpt lat="51.641934" lon="7.266341">
        <ele>75.118978</ele>
        <time>2026-07-24T19:18:57.395Z</time>
      </trkpt>
      <trkpt lat="51.641731" lon="7.265002">
        <ele>73.994683</ele>
        <time>2026-07-24T19:19:12.865Z</time>
      </trkpt>
      <trkpt lat="51.641574" lon="7.263964">
        <ele>74.437894</ele>
        <time>2026-07-24T19:19:30.205Z</time>
      </trkpt>
      <trkpt lat="51.641637" lon="7.263939">
        <ele>74.456757</ele>
        <time>2026-07-24T19:19:32.356Z</time>
      </trkpt>
      <trkpt lat="51.642064" lon="7.263774">
        <ele>74.515600</ele>
        <time>2026-07-24T19:19:44.744Z</time>
      </trkpt>
      <trkpt lat="51.642087" lon="7.263765">
        <ele>74.530978</ele>
        <time>2026-07-24T19:19:45.517Z</time>
      </trkpt>
      <trkpt lat="51.642151" lon="7.263851">
        <ele>74.602523</ele>
        <time>2026-07-24T19:19:51.352Z</time>
      </trkpt>
      <trkpt lat="51.642274" lon="7.263804">
        <ele>74.842737</ele>
        <time>2026-07-24T19:20:00.149Z</time>
      </trkpt>
      <trkpt lat="51.642290" lon="7.263825">
        <ele>74.881950</ele>
        <time>2026-07-24T19:20:01.553Z</time>
      </trkpt>
      <trkpt lat="51.642347" lon="7.263776">
        <ele>75.004464</ele>
        <time>2026-07-24T19:20:06.021Z</time>
      </trkpt>
      <trkpt lat="51.643589" lon="7.263287">
        <ele>77.231110</ele>
        <time>2026-07-24T19:21:34.925Z</time>
      </trkpt>
      <trkpt lat="51.643701" lon="7.263356">
        <ele>77.852009</ele>
        <time>2026-07-24T19:21:43.259Z</time>
      </trkpt>
      <trkpt lat="51.643749" lon="7.263294">
        <ele>78.352034</ele>
        <time>2026-07-24T19:21:47.563Z</time>
      </trkpt>
      <trkpt lat="51.643903" lon="7.263092">
        <ele>79.736767</ele>
        <time>2026-07-24T19:22:01.426Z</time>
      </trkpt>
      <trkpt lat="51.643850" lon="7.262704">
        <ele>80.786862</ele>
        <time>2026-07-24T19:22:13.361Z</time>
      </trkpt>
      <trkpt lat="51.643809" lon="7.262555">
        <ele>81.061694</ele>
        <time>2026-07-24T19:22:18.186Z</time>
      </trkpt>
      <trkpt lat="51.643789" lon="7.262314">
        <ele>81.604999</ele>
        <time>2026-07-24T19:22:26.218Z</time>
      </trkpt>
      <trkpt lat="51.643813" lon="7.262019">
        <ele>82.057120</ele>
        <time>2026-07-24T19:22:35.720Z</time>
      </trkpt>
      <trkpt lat="51.644020" lon="7.260886">
        <ele>82.685332</ele>
        <time>2026-07-24T19:23:05.066Z</time>
      </trkpt>
      <trkpt lat="51.643942" lon="7.260422">
        <ele>81.884478</ele>
        <time>2026-07-24T19:23:13.836Z</time>
      </trkpt>
      <trkpt lat="51.643852" lon="7.260225">
        <ele>81.497522</ele>
        <time>2026-07-24T19:23:18.205Z</time>
      </trkpt>
      <trkpt lat="51.644013" lon="7.259816">
        <ele>81.326468</ele>
        <time>2026-07-24T19:23:29.382Z</time>
      </trkpt>
      <trkpt lat="51.644119" lon="7.259730">
        <ele>81.459812</ele>
        <time>2026-07-24T19:23:34.267Z</time>
      </trkpt>
      <trkpt lat="51.644294" lon="7.259732">
        <ele>81.684520</ele>
        <time>2026-07-24T19:23:41.740Z</time>
      </trkpt>
      <trkpt lat="51.645462" lon="7.260205">
        <ele>83.483714</ele>
        <time>2026-07-24T19:24:33.635Z</time>
      </trkpt>
      <trkpt lat="51.645963" lon="7.260354">
        <ele>84.104756</ele>
        <time>2026-07-24T19:24:55.042Z</time>
      </trkpt>
      <trkpt lat="51.646181" lon="7.260454">
        <ele>84.381475</ele>
        <time>2026-07-24T19:25:04.344Z</time>
      </trkpt>
      <trkpt lat="51.646553" lon="7.260716">
        <ele>84.516669</ele>
        <time>2026-07-24T19:25:20.631Z</time>
      </trkpt>
      <trkpt lat="51.646572" lon="7.260628">
        <ele>84.488022</ele>
        <time>2026-07-24T19:25:21.910Z</time>
      </trkpt>
      <trkpt lat="51.646971" lon="7.260878">
        <ele>83.321644</ele>
        <time>2026-07-24T19:25:31.790Z</time>
      </trkpt>
      <trkpt lat="51.647741" lon="7.261360">
        <ele>81.459196</ele>
        <time>2026-07-24T19:25:51.472Z</time>
      </trkpt>
      <trkpt lat="51.648147" lon="7.261652">
        <ele>80.123220</ele>
        <time>2026-07-24T19:26:01.608Z</time>
      </trkpt>
      <trkpt lat="51.648236" lon="7.261695">
        <ele>79.796150</ele>
        <time>2026-07-24T19:26:03.556Z</time>
      </trkpt>
      <trkpt lat="51.648858" lon="7.261985">
        <ele>77.056743</ele>
        <time>2026-07-24T19:26:14.067Z</time>
      </trkpt>
      <trkpt lat="51.648970" lon="7.262118">
        <ele>76.731429</ele>
        <time>2026-07-24T19:26:16.467Z</time>
      </trkpt>
      <trkpt lat="51.649364" lon="7.262288">
        <ele>76.414272</ele>
        <time>2026-07-24T19:26:25.111Z</time>
      </trkpt>
      <trkpt lat="51.649528" lon="7.261185">
        <ele>77.154411</ele>
        <time>2026-07-24T19:26:43.956Z</time>
      </trkpt>
      <trkpt lat="51.649583" lon="7.260583">
        <ele>77.803960</ele>
        <time>2026-07-24T19:26:55.497Z</time>
      </trkpt>
      <trkpt lat="51.649776" lon="7.260590">
        <ele>77.812378</ele>
        <time>2026-07-24T19:26:59.373Z</time>
      </trkpt>
      <trkpt lat="51.649907" lon="7.260533">
        <ele>77.865798</ele>
        <time>2026-07-24T19:27:02.706Z</time>
      </trkpt>
      <trkpt lat="51.650067" lon="7.260385">
        <ele>78.020060</ele>
        <time>2026-07-24T19:27:07.592Z</time>
      </trkpt>
      <trkpt lat="51.650382" lon="7.259950">
        <ele>78.678644</ele>
        <time>2026-07-24T19:27:18.901Z</time>
      </trkpt>
      <trkpt lat="51.650563" lon="7.259527">
        <ele>79.656037</ele>
        <time>2026-07-24T19:27:30.045Z</time>
      </trkpt>
      <trkpt lat="51.651093" lon="7.258116">
        <ele>83.785712</ele>
        <time>2026-07-24T19:28:10.095Z</time>
      </trkpt>
      <trkpt lat="51.651290" lon="7.257616">
        <ele>84.561238</ele>
        <time>2026-07-24T19:28:20.848Z</time>
      </trkpt>
      <trkpt lat="51.651763" lon="7.256575">
        <ele>87.097078</ele>
        <time>2026-07-24T19:28:48.415Z</time>
      </trkpt>
      <trkpt lat="51.652032" lon="7.256037">
        <ele>89.023213</ele>
        <time>2026-07-24T19:29:06.375Z</time>
      </trkpt>
      <trkpt lat="51.652383" lon="7.255306">
        <ele>91.154624</ele>
        <time>2026-07-24T19:29:27.474Z</time>
      </trkpt>
      <trkpt lat="51.652598" lon="7.254846">
        <ele>91.993678</ele>
        <time>2026-07-24T19:29:39.143Z</time>
      </trkpt>
      <trkpt lat="51.652903" lon="7.254175">
        <ele>92.782529</ele>
        <time>2026-07-24T19:29:53.195Z</time>
      </trkpt>
      <trkpt lat="51.653107" lon="7.253724">
        <ele>93.721354</ele>
        <time>2026-07-24T19:30:04.665Z</time>
      </trkpt>
      <trkpt lat="51.653233" lon="7.253448">
        <ele>94.426385</ele>
        <time>2026-07-24T19:30:12.234Z</time>
      </trkpt>
      <trkpt lat="51.653447" lon="7.252977">
        <ele>95.736453</ele>
        <time>2026-07-24T19:30:25.805Z</time>
      </trkpt>
      <trkpt lat="51.653496" lon="7.252789">
        <ele>95.958636</ele>
        <time>2026-07-24T19:30:29.877Z</time>
      </trkpt>
      <trkpt lat="51.653490" lon="7.252761">
        <ele>95.977988</ele>
        <time>2026-07-24T19:30:30.396Z</time>
      </trkpt>
      <trkpt lat="51.653474" lon="7.252684">
        <ele>96.031037</ele>
        <time>2026-07-24T19:30:31.645Z</time>
      </trkpt>
      <trkpt lat="51.653650" lon="7.252592">
        <ele>96.307668</ele>
        <time>2026-07-24T19:30:35.493Z</time>
      </trkpt>
      <trkpt lat="51.653505" lon="7.252397">
        <ele>96.792080</ele>
        <time>2026-07-24T19:30:42.959Z</time>
      </trkpt>
      <trkpt lat="51.653398" lon="7.252258">
        <ele>97.287988</ele>
        <time>2026-07-24T19:30:48.148Z</time>
      </trkpt>
      <trkpt lat="51.653278" lon="7.252101">
        <ele>97.742188</ele>
        <time>2026-07-24T19:30:53.691Z</time>
      </trkpt>
      <trkpt lat="51.653307" lon="7.251997">
        <ele>97.948862</ele>
        <time>2026-07-24T19:30:55.877Z</time>
      </trkpt>
      <trkpt lat="51.653463" lon="7.250500">
        <ele>99.102846</ele>
        <time>2026-07-24T19:31:21.354Z</time>
      </trkpt>
      <trkpt lat="51.653531" lon="7.249857">
        <ele>99.628979</ele>
        <time>2026-07-24T19:31:32.402Z</time>
      </trkpt>
      <trkpt lat="51.653936" lon="7.249747">
        <ele>100.432000</ele>
        <time>2026-07-24T19:31:45.171Z</time>
      </trkpt>
      <trkpt lat="51.654090" lon="7.249740">
        <ele>100.337790</ele>
        <time>2026-07-24T19:31:48.752Z</time>
      </trkpt>
      <trkpt lat="51.654038" lon="7.249248">
        <ele>99.435365</ele>
        <time>2026-07-24T19:31:53.679Z</time>
      </trkpt>
      <trkpt lat="51.654056" lon="7.248599">
        <ele>98.216327</ele>
        <time>2026-07-24T19:32:00.315Z</time>
      </trkpt>
      <trkpt lat="51.654110" lon="7.248062">
        <ele>97.228520</ele>
        <time>2026-07-24T19:32:05.971Z</time>
      </trkpt>
      <trkpt lat="51.654219" lon="7.246776">
        <ele>94.146943</ele>
        <time>2026-07-24T19:32:18.486Z</time>
      </trkpt>
      <trkpt lat="51.654256" lon="7.246767">
        <ele>94.044617</ele>
        <time>2026-07-24T19:32:19.225Z</time>
      </trkpt>
      <trkpt lat="51.654793" lon="7.246688">
        <ele>94.948271</ele>
        <time>2026-07-24T19:32:34.759Z</time>
      </trkpt>
      <trkpt lat="51.654956" lon="7.246668">
        <ele>95.744041</ele>
        <time>2026-07-24T19:32:42.401Z</time>
      </trkpt>
      <trkpt lat="51.655093" lon="7.246648">
        <ele>96.533343</ele>
        <time>2026-07-24T19:32:49.575Z</time>
      </trkpt>
      <trkpt lat="51.655226" lon="7.246632">
        <ele>96.941278</ele>
        <time>2026-07-24T19:32:54.404Z</time>
      </trkpt>
      <trkpt lat="51.656128" lon="7.246482">
        <ele>96.067115</ele>
        <time>2026-07-24T19:33:11.029Z</time>
      </trkpt>
      <trkpt lat="51.656165" lon="7.246476">
        <ele>96.110898</ele>
        <time>2026-07-24T19:33:11.863Z</time>
      </trkpt>
      <trkpt lat="51.656782" lon="7.246391">
        <ele>96.942176</ele>
        <time>2026-07-24T19:33:30.254Z</time>
      </trkpt>
      <trkpt lat="51.656920" lon="7.246365">
        <ele>97.037013</ele>
        <time>2026-07-24T19:33:33.659Z</time>
      </trkpt>
      <trkpt lat="51.657338" lon="7.246272">
        <ele>96.992333</ele>
        <time>2026-07-24T19:33:42.358Z</time>
      </trkpt>
      <trkpt lat="51.657786" lon="7.246176">
        <ele>97.501610</ele>
        <time>2026-07-24T19:33:54.860Z</time>
      </trkpt>
      <trkpt lat="51.658134" lon="7.245984">
        <ele>97.952870</ele>
        <time>2026-07-24T19:34:04.841Z</time>
      </trkpt>
      <trkpt lat="51.658190" lon="7.245947">
        <ele>98.000241</ele>
        <time>2026-07-24T19:34:06.386Z</time>
      </trkpt>
      <trkpt lat="51.659220" lon="7.245088">
        <ele>98.914948</ele>
        <time>2026-07-24T19:34:35.564Z</time>
      </trkpt>
      <trkpt lat="51.658334" lon="7.242680">
        <ele>100.859428</ele>
        <time>2026-07-24T19:35:21.765Z</time>
      </trkpt>
      <trkpt lat="51.658272" lon="7.242513">
        <ele>101.047106</ele>
        <time>2026-07-24T19:35:25.770Z</time>
      </trkpt>
      <trkpt lat="51.658248" lon="7.242460">
        <ele>101.007298</ele>
        <time>2026-07-24T19:35:26.997Z</time>
      </trkpt>
      <trkpt lat="51.657808" lon="7.241275">
        <ele>99.983686</ele>
        <time>2026-07-24T19:35:43.130Z</time>
      </trkpt>
      <trkpt lat="51.657682" lon="7.240937">
        <ele>98.863318</ele>
        <time>2026-07-24T19:35:46.774Z</time>
      </trkpt>
      <trkpt lat="51.657617" lon="7.240658">
        <ele>98.179543</ele>
        <time>2026-07-24T19:35:49.725Z</time>
      </trkpt>
      <trkpt lat="51.657558" lon="7.240076">
        <ele>97.583609</ele>
        <time>2026-07-24T19:35:56.347Z</time>
      </trkpt>
      <trkpt lat="51.657539" lon="7.239880">
        <ele>97.471976</ele>
        <time>2026-07-24T19:35:58.917Z</time>
      </trkpt>
      <trkpt lat="51.657459" lon="7.239073">
        <ele>97.023493</ele>
        <time>2026-07-24T19:36:09.130Z</time>
      </trkpt>
      <trkpt lat="51.657344" lon="7.238004">
        <ele>95.830054</ele>
        <time>2026-07-24T19:36:21.023Z</time>
      </trkpt>
      <trkpt lat="51.657237" lon="7.236732">
        <ele>94.630881</ele>
        <time>2026-07-24T19:36:35.533Z</time>
      </trkpt>
      <trkpt lat="51.657239" lon="7.236497">
        <ele>94.520605</ele>
        <time>2026-07-24T19:36:38.617Z</time>
      </trkpt>
      <trkpt lat="51.657284" lon="7.236131">
        <ele>94.345384</ele>
        <time>2026-07-24T19:36:43.245Z</time>
      </trkpt>
      <trkpt lat="51.657602" lon="7.234621">
        <ele>93.044156</ele>
        <time>2026-07-24T19:37:01.644Z</time>
      </trkpt>
      <trkpt lat="51.657600" lon="7.234472">
        <ele>93.021351</ele>
        <time>2026-07-24T19:37:03.497Z</time>
      </trkpt>
      <trkpt lat="51.657643" lon="7.234259">
        <ele>93.000256</ele>
        <time>2026-07-24T19:37:06.609Z</time>
      </trkpt>
      <trkpt lat="51.657740" lon="7.234089">
        <ele>93.009770</ele>
        <time>2026-07-24T19:37:09.972Z</time>
      </trkpt>
      <trkpt lat="51.658251" lon="7.233767">
        <ele>93.103216</ele>
        <time>2026-07-24T19:37:22.466Z</time>
      </trkpt>
      <trkpt lat="51.658304" lon="7.233738">
        <ele>93.131337</ele>
        <time>2026-07-24T19:37:23.756Z</time>
      </trkpt>
      <trkpt lat="51.659542" lon="7.233022">
        <ele>93.923010</ele>
        <time>2026-07-24T19:37:55.619Z</time>
      </trkpt>
      <trkpt lat="51.660368" lon="7.232610">
        <ele>96.397848</ele>
        <time>2026-07-24T19:38:25.847Z</time>
      </trkpt>
      <trkpt lat="51.661629" lon="7.232470">
        <ele>95.991395</ele>
        <time>2026-07-24T19:38:52.599Z</time>
      </trkpt>
      <trkpt lat="51.662393" lon="7.232402">
        <ele>94.300671</ele>
        <time>2026-07-24T19:39:05.708Z</time>
      </trkpt>
      <trkpt lat="51.663292" lon="7.232314">
        <ele>92.288068</ele>
        <time>2026-07-24T19:39:21.135Z</time>
      </trkpt>
      <trkpt lat="51.663538" lon="7.232291">
        <ele>92.377533</ele>
        <time>2026-07-24T19:39:26.862Z</time>
      </trkpt>
      <trkpt lat="51.663618" lon="7.232283">
        <ele>92.574307</ele>
        <time>2026-07-24T19:39:29.373Z</time>
      </trkpt>
      <trkpt lat="51.663886" lon="7.232184">
        <ele>93.570724</ele>
        <time>2026-07-24T19:39:41.878Z</time>
      </trkpt>
      <trkpt lat="51.664153" lon="7.231985">
        <ele>95.119724</ele>
        <time>2026-07-24T19:39:56.606Z</time>
      </trkpt>
      <trkpt lat="51.664278" lon="7.231847">
        <ele>96.108553</ele>
        <time>2026-07-24T19:40:04.872Z</time>
      </trkpt>
      <trkpt lat="51.664755" lon="7.231408">
        <ele>100.381820</ele>
        <time>2026-07-24T19:40:38.647Z</time>
      </trkpt>
      <trkpt lat="51.664936" lon="7.231242">
        <ele>101.940320</ele>
        <time>2026-07-24T19:40:51.229Z</time>
      </trkpt>
      <trkpt lat="51.665545" lon="7.230687">
        <ele>106.231647</ele>
        <time>2026-07-24T19:41:28.231Z</time>
      </trkpt>
      <trkpt lat="51.665664" lon="7.230592">
        <ele>107.102551</ele>
        <time>2026-07-24T19:41:35.895Z</time>
      </trkpt>
      <trkpt lat="51.666023" lon="7.230234">
        <ele>109.689497</ele>
        <time>2026-07-24T19:41:59.333Z</time>
      </trkpt>
      <trkpt lat="51.666047" lon="7.230207">
        <ele>109.841612</ele>
        <time>2026-07-24T19:42:00.972Z</time>
      </trkpt>
      <trkpt lat="51.666851" lon="7.229409">
        <ele>112.120872</ele>
        <time>2026-07-24T19:42:44.816Z</time>
      </trkpt>
      <trkpt lat="51.668115" lon="7.228191">
        <ele>111.551212</ele>
        <time>2026-07-24T19:43:37.518Z</time>
      </trkpt>
      <trkpt lat="51.669455" lon="7.226873">
        <ele>107.054509</ele>
        <time>2026-07-24T19:44:24.347Z</time>
      </trkpt>
      <trkpt lat="51.669491" lon="7.226848">
        <ele>106.955673</ele>
        <time>2026-07-24T19:44:25.572Z</time>
      </trkpt>
      <trkpt lat="51.669534" lon="7.226863">
        <ele>106.844739</ele>
        <time>2026-07-24T19:44:26.905Z</time>
      </trkpt>
      <trkpt lat="51.669933" lon="7.226860">
        <ele>105.623338</ele>
        <time>2026-07-24T19:44:38.579Z</time>
      </trkpt>
      <trkpt lat="51.670535" lon="7.226769">
        <ele>104.750474</ele>
        <time>2026-07-24T19:44:58.653Z</time>
      </trkpt>
      <trkpt lat="51.671676" lon="7.226575">
        <ele>102.587579</ele>
        <time>2026-07-24T19:45:35.357Z</time>
      </trkpt>
      <trkpt lat="51.675865" lon="7.225851">
        <ele>90.211138</ele>
        <time>2026-07-24T19:47:40.984Z</time>
      </trkpt>
      <trkpt lat="51.676153" lon="7.225746">
        <ele>89.377947</ele>
        <time>2026-07-24T19:47:49.904Z</time>
      </trkpt>
      <trkpt lat="51.679122" lon="7.224336">
        <ele>79.826013</ele>
        <time>2026-07-24T19:49:21.654Z</time>
      </trkpt>
      <trkpt lat="51.679308" lon="7.224248">
        <ele>79.307257</ele>
        <time>2026-07-24T19:49:27.530Z</time>
      </trkpt>
      <trkpt lat="51.679544" lon="7.224124">
        <ele>78.750705</ele>
        <time>2026-07-24T19:49:35.224Z</time>
      </trkpt>
      <trkpt lat="51.679673" lon="7.224062">
        <ele>78.536066</ele>
        <time>2026-07-24T19:49:39.593Z</time>
      </trkpt>
      <trkpt lat="51.680142" lon="7.224153">
        <ele>78.146116</ele>
        <time>2026-07-24T19:49:55.833Z</time>
      </trkpt>
      <trkpt lat="51.680520" lon="7.224240">
        <ele>78.319197</ele>
        <time>2026-07-24T19:50:10.463Z</time>
      </trkpt>
      <trkpt lat="51.680857" lon="7.224312">
        <ele>78.608005</ele>
        <time>2026-07-24T19:50:24.324Z</time>
      </trkpt>
      <trkpt lat="51.681312" lon="7.224438">
        <ele>79.136586</ele>
        <time>2026-07-24T19:50:43.732Z</time>
      </trkpt>
      <trkpt lat="51.682363" lon="7.224699">
        <ele>81.013993</ele>
        <time>2026-07-24T19:51:30.776Z</time>
      </trkpt>
      <trkpt lat="51.683039" lon="7.224857">
        <ele>82.572562</ele>
        <time>2026-07-24T19:51:53.653Z</time>
      </trkpt>
      <trkpt lat="51.686119" lon="7.225540">
        <ele>96.592562</ele>
        <time>2026-07-24T19:54:06.718Z</time>
      </trkpt>
      <trkpt lat="51.686754" lon="7.225681">
        <ele>99.288824</ele>
        <time>2026-07-24T19:54:33.937Z</time>
      </trkpt>
      <trkpt lat="51.689675" lon="7.226338">
        <ele>106.161362</ele>
        <time>2026-07-24T19:56:13.650Z</time>
      </trkpt>
      <trkpt lat="51.689762" lon="7.226357">
        <ele>106.444221</ele>
        <time>2026-07-24T19:56:17.120Z</time>
      </trkpt>
      <trkpt lat="51.690969" lon="7.226628">
        <ele>111.333595</ele>
        <time>2026-07-24T19:57:07.431Z</time>
      </trkpt>
      <trkpt lat="51.691305" lon="7.226704">
        <ele>111.791993</ele>
        <time>2026-07-24T19:57:17.347Z</time>
      </trkpt>
      <trkpt lat="51.693003" lon="7.227085">
        <ele>109.022725</ele>
        <time>2026-07-24T19:57:52.303Z</time>
      </trkpt>
      <trkpt lat="51.693962" lon="7.227322">
        <ele>107.820838</ele>
        <time>2026-07-24T19:58:12.800Z</time>
      </trkpt>
      <trkpt lat="51.694680" lon="7.227516">
        <ele>107.259122</ele>
        <time>2026-07-24T19:58:29.495Z</time>
      </trkpt>
      <trkpt lat="51.697256" lon="7.228071">
        <ele>100.150724</ele>
        <time>2026-07-24T19:59:18.503Z</time>
      </trkpt>
      <trkpt lat="51.697835" lon="7.228216">
        <ele>97.754229</ele>
        <time>2026-07-24T19:59:28.971Z</time>
      </trkpt>
      <trkpt lat="51.698211" lon="7.228316">
        <ele>95.553128</ele>
        <time>2026-07-24T19:59:35.159Z</time>
      </trkpt>
      <trkpt lat="51.698810" lon="7.228485">
        <ele>93.783716</ele>
        <time>2026-07-24T19:59:53.597Z</time>
      </trkpt>
      <trkpt lat="51.700395" lon="7.228804">
        <ele>92.327347</ele>
        <time>2026-07-24T20:00:48.464Z</time>
      </trkpt>
      <trkpt lat="51.702506" lon="7.229322">
        <ele>85.909027</ele>
        <time>2026-07-24T20:01:52.140Z</time>
      </trkpt>
      <trkpt lat="51.702833" lon="7.229365">
        <ele>83.953887</ele>
        <time>2026-07-24T20:01:57.522Z</time>
      </trkpt>
      <trkpt lat="51.702936" lon="7.229348">
        <ele>83.291797</ele>
        <time>2026-07-24T20:01:59.180Z</time>
      </trkpt>
      <trkpt lat="51.703727" lon="7.228874">
        <ele>78.231187</ele>
        <time>2026-07-24T20:02:13.095Z</time>
      </trkpt>
      <trkpt lat="51.704387" lon="7.228474">
        <ele>77.830291</ele>
        <time>2026-07-24T20:02:30.286Z</time>
      </trkpt>
      <trkpt lat="51.704684" lon="7.228365">
        <ele>77.165307</ele>
        <time>2026-07-24T20:02:36.369Z</time>
      </trkpt>
      <trkpt lat="51.704970" lon="7.228319">
        <ele>75.745279</ele>
        <time>2026-07-24T20:02:41.160Z</time>
      </trkpt>
      <trkpt lat="51.706818" lon="7.228024">
        <ele>66.918184</ele>
        <time>2026-07-24T20:03:13.226Z</time>
      </trkpt>
      <trkpt lat="51.706948" lon="7.227998">
        <ele>66.368948</ele>
        <time>2026-07-24T20:03:15.505Z</time>
      </trkpt>
      <trkpt lat="51.707091" lon="7.227913">
        <ele>65.967036</ele>
        <time>2026-07-24T20:03:18.303Z</time>
      </trkpt>
      <trkpt lat="51.707674" lon="7.227325">
        <ele>65.215374</ele>
        <time>2026-07-24T20:03:33.108Z</time>
      </trkpt>
      <trkpt lat="51.708727" lon="7.226239">
        <ele>65.393055</ele>
        <time>2026-07-24T20:04:05.340Z</time>
      </trkpt>
      <trkpt lat="51.708860" lon="7.226198">
        <ele>65.383964</ele>
        <time>2026-07-24T20:04:08.648Z</time>
      </trkpt>
      <trkpt lat="51.710023" lon="7.226816">
        <ele>65.149988</ele>
        <time>2026-07-24T20:04:52.802Z</time>
      </trkpt>
      <trkpt lat="51.710309" lon="7.227008">
        <ele>65.468082</ele>
        <time>2026-07-24T20:05:05.727Z</time>
      </trkpt>
      <trkpt lat="51.710660" lon="7.227378">
        <ele>65.577875</ele>
        <time>2026-07-24T20:05:22.432Z</time>
      </trkpt>
      <trkpt lat="51.711666" lon="7.228517">
        <ele>62.579366</ele>
        <time>2026-07-24T20:05:59.912Z</time>
      </trkpt>
      <trkpt lat="51.711857" lon="7.228808">
        <ele>61.742524</ele>
        <time>2026-07-24T20:06:04.714Z</time>
      </trkpt>
      <trkpt lat="51.711932" lon="7.229014">
        <ele>61.115816</ele>
        <time>2026-07-24T20:06:07.280Z</time>
      </trkpt>
      <trkpt lat="51.712085" lon="7.229538">
        <ele>59.677611</ele>
        <time>2026-07-24T20:06:13.629Z</time>
      </trkpt>
      <trkpt lat="51.712117" lon="7.229651">
        <ele>59.467171</ele>
        <time>2026-07-24T20:06:15.053Z</time>
      </trkpt>
      <trkpt lat="51.712631" lon="7.229808">
        <ele>58.232399</ele>
        <time>2026-07-24T20:06:24.193Z</time>
      </trkpt>
      <trkpt lat="51.712682" lon="7.229822">
        <ele>58.075381</ele>
        <time>2026-07-24T20:06:25.051Z</time>
      </trkpt>
      <trkpt lat="51.712712" lon="7.229829">
        <ele>57.952527</ele>
        <time>2026-07-24T20:06:25.542Z</time>
      </trkpt>
      <trkpt lat="51.713524" lon="7.230050">
        <ele>54.676398</ele>
        <time>2026-07-24T20:06:38.354Z</time>
      </trkpt>
      <trkpt lat="51.713803" lon="7.230132">
        <ele>53.934412</ele>
        <time>2026-07-24T20:06:43.395Z</time>
      </trkpt>
      <trkpt lat="51.714222" lon="7.230247">
        <ele>52.466161</ele>
        <time>2026-07-24T20:06:50.129Z</time>
      </trkpt>
      <trkpt lat="51.715627" lon="7.230688">
        <ele>50.000908</ele>
        <time>2026-07-24T20:07:15.905Z</time>
      </trkpt>
      <trkpt lat="51.715922" lon="7.230786">
        <ele>49.503663</ele>
        <time>2026-07-24T20:07:21.284Z</time>
      </trkpt>
      <trkpt lat="51.715805" lon="7.231579">
        <ele>48.708223</ele>
        <time>2026-07-24T20:07:30.530Z</time>
      </trkpt>
      <trkpt lat="51.716575" lon="7.232135">
        <ele>47.583246</ele>
        <time>2026-07-24T20:07:46.278Z</time>
      </trkpt>
      <trkpt lat="51.717840" lon="7.233076">
        <ele>45.296461</ele>
        <time>2026-07-24T20:08:11.465Z</time>
      </trkpt>
      <trkpt lat="51.718409" lon="7.233499">
        <ele>44.149143</ele>
        <time>2026-07-24T20:08:22.733Z</time>
      </trkpt>
      <trkpt lat="51.718635" lon="7.233676">
        <ele>43.575913</ele>
        <time>2026-07-24T20:08:26.973Z</time>
      </trkpt>
      <trkpt lat="51.718683" lon="7.233715">
        <ele>43.497978</ele>
        <time>2026-07-24T20:08:27.947Z</time>
      </trkpt>
      <trkpt lat="51.718722" lon="7.233749">
        <ele>43.521861</ele>
        <time>2026-07-24T20:08:28.829Z</time>
      </trkpt>
      <trkpt lat="51.718854" lon="7.233841">
        <ele>43.599331</ele>
        <time>2026-07-24T20:08:32.576Z</time>
      </trkpt>
      <trkpt lat="51.719162" lon="7.233981">
        <ele>43.776098</ele>
        <time>2026-07-24T20:08:40.961Z</time>
      </trkpt>
      <trkpt lat="51.719509" lon="7.233971">
        <ele>43.390706</ele>
        <time>2026-07-24T20:08:47.340Z</time>
      </trkpt>
      <trkpt lat="51.720029" lon="7.233772">
        <ele>42.409053</ele>
        <time>2026-07-24T20:08:56.984Z</time>
      </trkpt>
      <trkpt lat="51.720333" lon="7.233709">
        <ele>41.469844</ele>
        <time>2026-07-24T20:09:01.959Z</time>
      </trkpt>
      <trkpt lat="51.720680" lon="7.233659">
        <ele>40.550901</ele>
        <time>2026-07-24T20:09:07.957Z</time>
      </trkpt>
      <trkpt lat="51.720860" lon="7.233708">
        <ele>39.953635</ele>
        <time>2026-07-24T20:09:10.857Z</time>
      </trkpt>
      <trkpt lat="51.720899" lon="7.233725">
        <ele>39.687669</ele>
        <time>2026-07-24T20:09:11.484Z</time>
      </trkpt>
      <trkpt lat="51.720962" lon="7.233756">
        <ele>39.226306</ele>
        <time>2026-07-24T20:09:12.467Z</time>
      </trkpt>
      <trkpt lat="51.721453" lon="7.233998">
        <ele>35.743039</ele>
        <time>2026-07-24T20:09:19.718Z</time>
      </trkpt>
      <trkpt lat="51.721504" lon="7.234025">
        <ele>35.403705</ele>
        <time>2026-07-24T20:09:20.548Z</time>
      </trkpt>
      <trkpt lat="51.721617" lon="7.234084">
        <ele>35.277634</ele>
        <time>2026-07-24T20:09:22.694Z</time>
      </trkpt>
      <trkpt lat="51.721794" lon="7.233109">
        <ele>35.603551</ele>
        <time>2026-07-24T20:09:38.507Z</time>
      </trkpt>
      <trkpt lat="51.721756" lon="7.233083">
        <ele>35.640608</ele>
        <time>2026-07-24T20:09:39.676Z</time>
      </trkpt>
      <trkpt lat="51.722009" lon="7.231608">
        <ele>36.463480</ele>
        <time>2026-07-24T20:10:06.932Z</time>
      </trkpt>
      <trkpt lat="51.722414" lon="7.229527">
        <ele>36.840389</ele>
        <time>2026-07-24T20:10:41.423Z</time>
      </trkpt>
      <trkpt lat="51.722478" lon="7.228912">
        <ele>37.235216</ele>
        <time>2026-07-24T20:10:52.496Z</time>
      </trkpt>
      <trkpt lat="51.722485" lon="7.228429">
        <ele>37.662601</ele>
        <time>2026-07-24T20:11:01.916Z</time>
      </trkpt>
      <trkpt lat="51.722555" lon="7.228075">
        <ele>37.908836</ele>
        <time>2026-07-24T20:11:08.545Z</time>
      </trkpt>
      <trkpt lat="51.722749" lon="7.227575">
        <ele>38.088160</ele>
        <time>2026-07-24T20:11:18.853Z</time>
      </trkpt>
      <trkpt lat="51.722862" lon="7.227144">
        <ele>37.491699</ele>
        <time>2026-07-24T20:11:24.397Z</time>
      </trkpt>
      <trkpt lat="51.722935" lon="7.226776">
        <ele>36.942496</ele>
        <time>2026-07-24T20:11:28.855Z</time>
      </trkpt>
      <trkpt lat="51.723522" lon="7.223688">
        <ele>37.058853</ele>
        <time>2026-07-24T20:12:19.315Z</time>
      </trkpt>
      <trkpt lat="51.723654" lon="7.223565">
        <ele>37.028549</ele>
        <time>2026-07-24T20:12:24.724Z</time>
      </trkpt>
      <trkpt lat="51.723808" lon="7.222771">
        <ele>36.962317</ele>
        <time>2026-07-24T20:12:43.632Z</time>
      </trkpt>
      <trkpt lat="51.723813" lon="7.222599">
        <ele>37.008651</ele>
        <time>2026-07-24T20:12:47.722Z</time>
      </trkpt>
      <trkpt lat="51.723954" lon="7.221911">
        <ele>37.455536</ele>
        <time>2026-07-24T20:13:06.633Z</time>
      </trkpt>
      <trkpt lat="51.724201" lon="7.220686">
        <ele>37.516924</ele>
        <time>2026-07-24T20:13:36.147Z</time>
      </trkpt>
      <trkpt lat="51.724486" lon="7.219796">
        <ele>37.638505</ele>
        <time>2026-07-24T20:13:59.764Z</time>
      </trkpt>
      <trkpt lat="51.724935" lon="7.217281">
        <ele>37.088667</ele>
        <time>2026-07-24T20:14:57.792Z</time>
      </trkpt>
      <trkpt lat="51.725008" lon="7.216456">
        <ele>36.813860</ele>
        <time>2026-07-24T20:15:15.863Z</time>
      </trkpt>
      <trkpt lat="51.725693" lon="7.213023">
        <ele>36.415154</ele>
        <time>2026-07-24T20:16:37.169Z</time>
      </trkpt>
      <trkpt lat="51.725860" lon="7.212280">
        <ele>36.500390</ele>
        <time>2026-07-24T20:16:55.593Z</time>
      </trkpt>
      <trkpt lat="51.726713" lon="7.208812">
        <ele>36.985001</ele>
        <time>2026-07-24T20:18:23.277Z</time>
      </trkpt>
      <trkpt lat="51.727156" lon="7.207087">
        <ele>36.999998</ele>
        <time>2026-07-24T20:19:06.122Z</time>
      </trkpt>
      <trkpt lat="51.728171" lon="7.203141">
        <ele>37.002111</ele>
        <time>2026-07-24T20:20:44.064Z</time>
      </trkpt>
      <trkpt lat="51.729270" lon="7.198957">
        <ele>37.088540</ele>
        <time>2026-07-24T20:22:28.775Z</time>
      </trkpt>
      <trkpt lat="51.729431" lon="7.198224">
        <ele>37.012374</ele>
        <time>2026-07-24T20:22:46.573Z</time>
      </trkpt>
      <trkpt lat="51.729644" lon="7.197031">
        <ele>37.153284</ele>
        <time>2026-07-24T20:23:15.198Z</time>
      </trkpt>
      <trkpt lat="51.729956" lon="7.195094">
        <ele>38.230053</ele>
        <time>2026-07-24T20:24:05.638Z</time>
      </trkpt>
      <trkpt lat="51.730137" lon="7.194454">
        <ele>38.825827</ele>
        <time>2026-07-24T20:24:24.693Z</time>
      </trkpt>
      <trkpt lat="51.730229" lon="7.194088">
        <ele>38.878439</ele>
        <time>2026-07-24T20:24:30.615Z</time>
      </trkpt>
      <trkpt lat="51.730257" lon="7.193437">
        <ele>38.782455</ele>
        <time>2026-07-24T20:24:40.004Z</time>
      </trkpt>
      <trkpt lat="51.730297" lon="7.192839">
        <ele>39.043286</ele>
        <time>2026-07-24T20:24:50.531Z</time>
      </trkpt>
      <trkpt lat="51.730293" lon="7.192494">
        <ele>39.052375</ele>
        <time>2026-07-24T20:24:55.499Z</time>
      </trkpt>
      <trkpt lat="51.730135" lon="7.191892">
        <ele>38.699089</ele>
        <time>2026-07-24T20:25:03.308Z</time>
      </trkpt>
      <trkpt lat="51.730111" lon="7.191730">
        <ele>38.587801</ele>
        <time>2026-07-24T20:25:05.315Z</time>
      </trkpt>
      <trkpt lat="51.730060" lon="7.190514">
        <ele>37.711796</ele>
        <time>2026-07-24T20:25:19.542Z</time>
      </trkpt>
      <trkpt lat="51.729891" lon="7.188889">
        <ele>36.824158</ele>
        <time>2026-07-24T20:25:39.586Z</time>
      </trkpt>
      <trkpt lat="51.729842" lon="7.188028">
        <ele>36.469078</ele>
        <time>2026-07-24T20:25:50.359Z</time>
      </trkpt>
      <trkpt lat="51.729847" lon="7.187923">
        <ele>36.419880</ele>
        <time>2026-07-24T20:25:51.635Z</time>
      </trkpt>
      <trkpt lat="51.729914" lon="7.187735">
        <ele>36.312002</ele>
        <time>2026-07-24T20:25:54.199Z</time>
      </trkpt>
      <trkpt lat="51.729950" lon="7.187537">
        <ele>36.281478</ele>
        <time>2026-07-24T20:25:56.703Z</time>
      </trkpt>
      <trkpt lat="51.729946" lon="7.187152">
        <ele>36.612253</ele>
        <time>2026-07-24T20:26:02.984Z</time>
      </trkpt>
      <trkpt lat="51.729911" lon="7.186538">
        <ele>38.227554</ele>
        <time>2026-07-24T20:26:18.947Z</time>
      </trkpt>
      <trkpt lat="51.729936" lon="7.186365">
        <ele>38.384881</ele>
        <time>2026-07-24T20:26:22.894Z</time>
      </trkpt>
      <trkpt lat="51.730033" lon="7.186403">
        <ele>38.527602</ele>
        <time>2026-07-24T20:26:25.393Z</time>
      </trkpt>
      <trkpt lat="51.730888" lon="7.186805">
        <ele>35.516772</ele>
        <time>2026-07-24T20:26:39.421Z</time>
      </trkpt>
      <trkpt lat="51.731371" lon="7.187022">
        <ele>37.589098</ele>
        <time>2026-07-24T20:27:00.402Z</time>
      </trkpt>
      <trkpt lat="51.731679" lon="7.187159">
        <ele>38.326862</ele>
        <time>2026-07-24T20:27:10.219Z</time>
      </trkpt>
      <trkpt lat="51.731810" lon="7.187218">
        <ele>38.545736</ele>
        <time>2026-07-24T20:27:13.755Z</time>
      </trkpt>
      <trkpt lat="51.732122" lon="7.187365">
        <ele>38.982552</ele>
        <time>2026-07-24T20:27:23.429Z</time>
      </trkpt>
      <trkpt lat="51.732422" lon="7.187510">
        <ele>38.989620</ele>
        <time>2026-07-24T20:27:30.063Z</time>
      </trkpt>
      <trkpt lat="51.732562" lon="7.187566">
        <ele>38.932906</ele>
        <time>2026-07-24T20:27:32.935Z</time>
      </trkpt>
      <trkpt lat="51.732798" lon="7.187673">
        <ele>38.900440</ele>
        <time>2026-07-24T20:27:38.212Z</time>
      </trkpt>
      <trkpt lat="51.732994" lon="7.187763">
        <ele>38.914127</ele>
        <time>2026-07-24T20:27:42.891Z</time>
      </trkpt>
      <trkpt lat="51.733021" lon="7.187775">
        <ele>38.916863</ele>
        <time>2026-07-24T20:27:43.568Z</time>
      </trkpt>
      <trkpt lat="51.733278" lon="7.187930">
        <ele>38.950528</ele>
        <time>2026-07-24T20:27:50.074Z</time>
      </trkpt>
      <trkpt lat="51.733468" lon="7.188123">
        <ele>38.624609</ele>
        <time>2026-07-24T20:27:54.187Z</time>
      </trkpt>
      <trkpt lat="51.733610" lon="7.188301">
        <ele>38.054300</ele>
        <time>2026-07-24T20:27:57.058Z</time>
      </trkpt>
      <trkpt lat="51.733683" lon="7.188142">
        <ele>37.847394</ele>
        <time>2026-07-24T20:27:59.089Z</time>
      </trkpt>
      <trkpt lat="51.733778" lon="7.188078">
        <ele>37.774232</ele>
        <time>2026-07-24T20:28:01.118Z</time>
      </trkpt>
      <trkpt lat="51.733908" lon="7.188066">
        <ele>37.908865</ele>
        <time>2026-07-24T20:28:05.280Z</time>
      </trkpt>
      <trkpt lat="51.734024" lon="7.188055">
        <ele>38.145062</ele>
        <time>2026-07-24T20:28:09.344Z</time>
      </trkpt>
      <trkpt lat="51.734546" lon="7.187995">
        <ele>38.684987</ele>
        <time>2026-07-24T20:28:23.434Z</time>
      </trkpt>
      <trkpt lat="51.734867" lon="7.187959">
        <ele>38.933542</ele>
        <time>2026-07-24T20:28:31.671Z</time>
      </trkpt>
      <trkpt lat="51.735185" lon="7.187918">
        <ele>39.227246</ele>
        <time>2026-07-24T20:28:40.630Z</time>
      </trkpt>
      <trkpt lat="51.735508" lon="7.187877">
        <ele>39.022431</ele>
        <time>2026-07-24T20:28:47.353Z</time>
      </trkpt>
      <trkpt lat="51.735687" lon="7.187858">
        <ele>38.953805</ele>
        <time>2026-07-24T20:28:50.979Z</time>
      </trkpt>
      <trkpt lat="51.737532" lon="7.187644">
        <ele>39.287874</ele>
        <time>2026-07-24T20:29:35.553Z</time>
      </trkpt>
      <trkpt lat="51.737802" lon="7.187611">
        <ele>39.291322</ele>
        <time>2026-07-24T20:29:41.913Z</time>
      </trkpt>
      <trkpt lat="51.737928" lon="7.187599">
        <ele>39.262175</ele>
        <time>2026-07-24T20:29:44.689Z</time>
      </trkpt>
      <trkpt lat="51.737967" lon="7.187595">
        <ele>39.246849</ele>
        <time>2026-07-24T20:29:45.525Z</time>
      </trkpt>
      <trkpt lat="51.738258" lon="7.187556">
        <ele>39.226402</ele>
        <time>2026-07-24T20:29:52.056Z</time>
      </trkpt>
      <trkpt lat="51.738339" lon="7.187531">
        <ele>39.261876</ele>
        <time>2026-07-24T20:29:54.127Z</time>
      </trkpt>
      <trkpt lat="51.738369" lon="7.187522">
        <ele>39.289653</ele>
        <time>2026-07-24T20:29:54.938Z</time>
      </trkpt>
      <trkpt lat="51.738487" lon="7.187606">
        <ele>39.407046</ele>
        <time>2026-07-24T20:29:59.321Z</time>
      </trkpt>
      <trkpt lat="51.738564" lon="7.187532">
        <ele>39.470369</ele>
        <time>2026-07-24T20:30:02.229Z</time>
      </trkpt>
      <trkpt lat="51.738769" lon="7.187510">
        <ele>39.557091</ele>
        <time>2026-07-24T20:30:08.468Z</time>
      </trkpt>
      <trkpt lat="51.738914" lon="7.187635">
        <ele>39.504227</ele>
        <time>2026-07-24T20:30:13.002Z</time>
      </trkpt>
      <trkpt lat="51.738927" lon="7.187623">
        <ele>39.499411</ele>
        <time>2026-07-24T20:30:13.399Z</time>
      </trkpt>
      <trkpt lat="51.739133" lon="7.187435">
        <ele>39.446740</ele>
        <time>2026-07-24T20:30:20.219Z</time>
      </trkpt>
      <trkpt lat="51.739216" lon="7.187391">
        <ele>39.559338</ele>
        <time>2026-07-24T20:30:23.187Z</time>
      </trkpt>
      <trkpt lat="51.739303" lon="7.187399">
        <ele>39.671656</ele>
        <time>2026-07-24T20:30:26.272Z</time>
      </trkpt>
      <trkpt lat="51.739617" lon="7.187412">
        <ele>39.987532</ele>
        <time>2026-07-24T20:30:36.827Z</time>
      </trkpt>
      <trkpt lat="51.739657" lon="7.187468">
        <ele>40.009548</ele>
        <time>2026-07-24T20:30:38.505Z</time>
      </trkpt>
      <trkpt lat="51.739710" lon="7.187431">
        <ele>40.033560</ele>
        <time>2026-07-24T20:30:40.255Z</time>
      </trkpt>
      <trkpt lat="51.739722" lon="7.187355">
        <ele>40.053758</ele>
        <time>2026-07-24T20:30:41.657Z</time>
      </trkpt>
      <trkpt lat="51.739486" lon="7.187342">
        <ele>39.902723</ele>
        <time>2026-07-24T20:30:48.024Z</time>
      </trkpt>
      <trkpt lat="51.739372" lon="7.187224">
        <ele>39.830236</ele>
        <time>2026-07-24T20:30:51.667Z</time>
      </trkpt>
      <trkpt lat="51.739302" lon="7.187063">
        <ele>39.758103</ele>
        <time>2026-07-24T20:30:55.023Z</time>
      </trkpt>
      <trkpt lat="51.739200" lon="7.186834">
        <ele>39.572793</ele>
        <time>2026-07-24T20:30:58.339Z</time>
      </trkpt>
      <trkpt lat="51.738818" lon="7.185972">
        <ele>38.569163</ele>
        <time>2026-07-24T20:31:10.349Z</time>
      </trkpt>
      <trkpt lat="51.738455" lon="7.185135">
        <ele>38.493828</ele>
        <time>2026-07-24T20:31:24.006Z</time>
      </trkpt>
      <trkpt lat="51.738418" lon="7.185053">
        <ele>38.528130</ele>
        <time>2026-07-24T20:31:25.655Z</time>
      </trkpt>
      <trkpt lat="51.738371" lon="7.184949">
        <ele>38.659312</ele>
        <time>2026-07-24T20:31:31.192Z</time>
      </trkpt>
      <trkpt lat="51.738211" lon="7.184601">
        <ele>39.260995</ele>
        <time>2026-07-24T20:31:39.767Z</time>
      </trkpt>
      <trkpt lat="51.738152" lon="7.184471">
        <ele>39.480589</ele>
        <time>2026-07-24T20:31:42.892Z</time>
      </trkpt>
      <trkpt lat="51.738140" lon="7.184420">
        <ele>39.548535</ele>
        <time>2026-07-24T20:31:43.920Z</time>
      </trkpt>
      <trkpt lat="51.738135" lon="7.184385">
        <ele>39.555019</ele>
        <time>2026-07-24T20:31:44.560Z</time>
      </trkpt>
      <trkpt lat="51.738180" lon="7.184284">
        <ele>39.577479</ele>
        <time>2026-07-24T20:31:46.560Z</time>
      </trkpt>
      <trkpt lat="51.738227" lon="7.184208">
        <ele>39.596868</ele>
        <time>2026-07-24T20:31:48.034Z</time>
      </trkpt>
      <trkpt lat="51.738287" lon="7.184304">
        <ele>39.613097</ele>
        <time>2026-07-24T20:31:49.654Z</time>
      </trkpt>
      <trkpt lat="51.738440" lon="7.184515">
        <ele>39.613097</ele>
        <time>2026-07-24T20:31:53.245Z</time>
      </trkpt>
    </trkseg>
  </trk>
</gpx>